Observation data for Amarillo 9 North Northeast on 02/22/2019      Previous  Date  Next       Current Mesonet Observations  Soil Data  Daily Summary Page  Observations in Plain Language
KAM2 220600Z 14018KT 03/M04 A2987 RMK A01 T00291041  RH  060%=      5-min Rain = 0
KAM2 220601Z 15018KT 03/M04 A2987 RMK A01 T00301040  RH  060%=      5-min Rain = 0
KAM2 220602Z 15018KT 03/M04 A2987 RMK A01 T00291040  RH  060%=      5-min Rain = 0
KAM2 220603Z 15019G24KT 03/M04 A2987 RMK A01 T00291039  RH  061%=      5-min Rain = 0
KAM2 220604Z 14017KT 03/M04 A2987 RMK A01 T00291040  RH  061%=      5-min Rain = 0
KAM2 220605Z 15019KT 03/M04 A2987 RMK A01 T00291040  RH  061%=      5-min Rain = 0
KAM2 220606Z 15019KT 03/M04 A2987 RMK A01 T00281040  RH  061%=      5-min Rain = 0
KAM2 220607Z 14018KT 03/M04 A2987 RMK A01 T00281040  RH  061%=      5-min Rain = 0
KAM2 220608Z 14017KT 03/M04 A2987 RMK A01 T00281039  RH  061%=      5-min Rain = 0
KAM2 220609Z 15018KT 03/M04 A2987 RMK A01 T00281039  RH  061%=      5-min Rain = 0
KAM2 220610Z 15017KT 03/M04 A2987 RMK A01 T00271039  RH  062%=      5-min Rain = 0
KAM2 220611Z 15015KT 03/M04 A2987 RMK A01 T00281039  RH  062%=      5-min Rain = 0
KAM2 220612Z 15018KT 03/M04 A2987 RMK A01 T00271039  RH  062%=      5-min Rain = 0
KAM2 220613Z 14019KT 03/M04 A2987 RMK A01 T00271039  RH  062%=      5-min Rain = 0
KAM2 220614Z 15015KT 03/M04 A2987 RMK A01 T00271038  RH  062%=      5-min Rain = 0
KAM2 220615Z 15016KT 03/M04 A2987 RMK A01 T00271038  RH  062%=      5-min Rain = 0
KAM2 220616Z 15017KT 03/M04 A2987 RMK A01 T00271038  RH  062%=      5-min Rain = 0
KAM2 220617Z 15017KT 03/M04 A2987 RMK A01 T00271038  RH  063%=      5-min Rain = 0
KAM2 220618Z 15017KT 03/M04 A2987 RMK A01 T00271038  RH  063%=      5-min Rain = 0
KAM2 220619Z 15017G22KT 03/M04 A2987 RMK A01 T00271037  RH  063%=      5-min Rain = 0
KAM2 220620Z 14017KT 03/M04 A2987 RMK A01 T00261037  RH  063%=      5-min Rain = 0
KAM2 220621Z 15015KT 03/M04 A2987 RMK A01 T00271037  RH  063%=      5-min Rain = 0
KAM2 220622Z 15016G21KT 03/M04 A2987 RMK A01 T00261037  RH  063%=      5-min Rain = 0
KAM2 220623Z 14016KT 03/M04 A2987 RMK A01 T00261037  RH  063%=      5-min Rain = 0
KAM2 220624Z 14016G21KT 03/M04 A2987 RMK A01 T00261036  RH  063%=      5-min Rain = 0
KAM2 220625Z 15016KT 03/M04 A2987 RMK A01 T00261036  RH  063%=      5-min Rain = 0
KAM2 220626Z 15019KT 03/M04 A2987 RMK A01 T00261036  RH  064%=      5-min Rain = 0
KAM2 220627Z 15015KT 03/M04 A2987 RMK A01 T00261036  RH  064%=      5-min Rain = 0
KAM2 220628Z 15019KT 03/M04 A2987 RMK A01 T00261036  RH  064%=      5-min Rain = 0
KAM2 220629Z 15017G22KT 03/M04 A2987 RMK A01 T00261035  RH  064%=      5-min Rain = 0
KAM2 220630Z 15016KT 03/M04 A2986 RMK A01 T00261035  RH  064%=      5-min Rain = 0
KAM2 220631Z 14019KT 03/M04 A2986 RMK A01 T00261035  RH  064%=      5-min Rain = 0
KAM2 220632Z 15018G25KT 03/M04 A2986 RMK A01 T00261035  RH  064%=      5-min Rain = 0
KAM2 220633Z 15019KT 03/M04 A2986 RMK A01 T00261035  RH  064%=      5-min Rain = 0
KAM2 220634Z 14017KT 03/M04 A2987 RMK A01 T00261035  RH  064%=      5-min Rain = 0
KAM2 220635Z 15018KT 03/M04 A2987 RMK A01 T00261035  RH  064%=      5-min Rain = 0
KAM2 220636Z 15017KT 03/M04 A2987 RMK A01 T00251035  RH  065%=      5-min Rain = 0
KAM2 220637Z 14019KT 03/M03 A2987 RMK A01 T00251034  RH  065%=      5-min Rain = 0
KAM2 220638Z 15015KT 03/M03 A2987 RMK A01 T00261034  RH  065%=      5-min Rain = 0
KAM2 220639Z 14019G24KT 03/M03 A2987 RMK A01 T00261034  RH  065%=      5-min Rain = 0
KAM2 220640Z 15019G24KT 03/M03 A2987 RMK A01 T00261033  RH  065%=      5-min Rain = 0
KAM2 220641Z 15018G23KT 03/M03 A2987 RMK A01 T00261033  RH  065%=      5-min Rain = 0
KAM2 220642Z 14018KT 03/M03 A2987 RMK A01 T00261033  RH  065%=      5-min Rain = 0
KAM2 220643Z 15017KT 03/M03 A2987 RMK A01 T00261032  RH  065%=      5-min Rain = 0
KAM2 220644Z 15017G22KT 03/M03 A2987 RMK A01 T00261032  RH  065%=      5-min Rain = 0
KAM2 220645Z 15017G23KT 03/M03 A2987 RMK A01 T00261032  RH  066%=      5-min Rain = 0
KAM2 220646Z 15018G24KT 03/M03 A2987 RMK A01 T00261031  RH  066%=      5-min Rain = 0
KAM2 220647Z 15017G22KT 03/M03 A2987 RMK A01 T00261031  RH  066%=      5-min Rain = 0
KAM2 220648Z 15018G23KT 03/M03 A2987 RMK A01 T00271031  RH  066%=      5-min Rain = 0
KAM2 220649Z 15020KT 03/M03 A2987 RMK A01 T00271031  RH  066%=      5-min Rain = 0
KAM2 220650Z 15019G24KT 03/M03 A2987 RMK A01 T00271030  RH  066%=      5-min Rain = 0
KAM2 220651Z 15016G22KT 03/M03 A2987 RMK A01 T00271030  RH  066%=      5-min Rain = 0
KAM2 220652Z 15016G21KT 03/M03 A2988 RMK A01 T00271030  RH  066%=      5-min Rain = 0
KAM2 220653Z 15016KT 03/M03 A2987 RMK A01 T00271030  RH  066%=      5-min Rain = 0
KAM2 220654Z 15015G22KT 03/M03 A2988 RMK A01 T00271030  RH  066%=      5-min Rain = 0
KAM2 220655Z 15015G20KT 03/M03 A2987 RMK A01 T00271029  RH  066%=      5-min Rain = 0
KAM2 220656Z 15017KT 03/M03 A2987 RMK A01 T00271029  RH  067%=      5-min Rain = 0
KAM2 220657Z 16017KT 03/M03 A2987 RMK A01 T00271029  RH  067%=      5-min Rain = 0
KAM2 220658Z 15017KT 03/M03 A2987 RMK A01 T00271028  RH  067%=      5-min Rain = 0
KAM2 220659Z 15015KT 03/M03 A2987 RMK A01 T00281028  RH  067%=      5-min Rain = 0
KAM2 220700Z 15015G22KT 03/M03 A2987 RMK A01 T00271028  RH  067%=      5-min Rain = 0
KAM2 220701Z 15019KT 03/M03 A2987 RMK A01 T00281027  RH  067%=      5-min Rain = 0
KAM2 220702Z 15014G19KT 03/M03 A2988 RMK A01 T00271027  RH  067%=      5-min Rain = 0
KAM2 220703Z 15017KT 03/M03 A2988 RMK A01 T00281027  RH  067%=      5-min Rain = 0
KAM2 220704Z 15015G20KT 03/M03 A2988 RMK A01 T00281027  RH  068%=      5-min Rain = 0
KAM2 220705Z 16016KT 03/M03 A2988 RMK A01 T00271027  RH  068%=      5-min Rain = 0
KAM2 220706Z 16016KT 03/M03 A2988 RMK A01 T00281026  RH  068%=      5-min Rain = 0
KAM2 220707Z 16018KT 03/M03 A2988 RMK A01 T00281026  RH  068%=      5-min Rain = 0
KAM2 220708Z 16018KT 03/M03 A2988 RMK A01 T00281026  RH  068%=      5-min Rain = 0
KAM2 220709Z 16017KT 03/M03 A2988 RMK A01 T00281025  RH  068%=      5-min Rain = 0
KAM2 220710Z 15017KT 03/M03 A2988 RMK A01 T00281025  RH  068%=      5-min Rain = 0
KAM2 220711Z 16015KT 03/M03 A2988 RMK A01 T00281025  RH  068%=      5-min Rain = 0
KAM2 220712Z 16014KT 03/M03 A2988 RMK A01 T00281025  RH  068%=      5-min Rain = 0
KAM2 220713Z 15016G21KT 03/M03 A2988 RMK A01 T00281025  RH  068%=      5-min Rain = 0
KAM2 220714Z 16018KT 03/M02 A2988 RMK A01 T00281024  RH  069%=      5-min Rain = 0
KAM2 220715Z 15016KT 03/M02 A2988 RMK A01 T00281024  RH  069%=      5-min Rain = 0
KAM2 220716Z 16017KT 03/M02 A2988 RMK A01 T00271024  RH  069%=      5-min Rain = 0
KAM2 220717Z 15019KT 03/M02 A2988 RMK A01 T00271023  RH  069%=      5-min Rain = 0
KAM2 220718Z 16018KT 03/M02 A2988 RMK A01 T00271023  RH  070%=      5-min Rain = 0
KAM2 220719Z 16017KT 03/M02 A2988 RMK A01 T00271023  RH  070%=      5-min Rain = 0
KAM2 220720Z 15016KT 03/M02 A2989 RMK A01 T00271023  RH  070%=      5-min Rain = 0
KAM2 220721Z 16014KT 03/M02 A2989 RMK A01 T00261023  RH  070%=      5-min Rain = 0
KAM2 220722Z 16015KT 03/M02 A2989 RMK A01 T00261023  RH  070%=      5-min Rain = 0
KAM2 220723Z 16017KT 03/M02 A2989 RMK A01 T00261023  RH  070%=      5-min Rain = 0
KAM2 220724Z 16017G23KT 03/M02 A2989 RMK A01 T00251023  RH  071%=      5-min Rain = 0
KAM2 220725Z 16013KT 03/M02 A2989 RMK A01 T00251023  RH  071%=      5-min Rain = 0
KAM2 220726Z 16015KT 03/M02 A2989 RMK A01 T00251023  RH  071%=      5-min Rain = 0
KAM2 220727Z 16016KT 03/M02 A2989 RMK A01 T00251023  RH  071%=      5-min Rain = 0
KAM2 220728Z 16015KT 03/M02 A2989 RMK A01 T00251023  RH  071%=      5-min Rain = 0
KAM2 220729Z 16014KT 02/M02 A2989 RMK A01 T00241023  RH  071%=      5-min Rain = 0
KAM2 220730Z 16017KT 02/M02 A2989 RMK A01 T00241023  RH  071%=      5-min Rain = 0
KAM2 220731Z 16014KT 02/M02 A2989 RMK A01 T00241023  RH  071%=      5-min Rain = 0
KAM2 220732Z 17015KT 02/M02 A2989 RMK A01 T00241023  RH  071%=      5-min Rain = 0
KAM2 220733Z 17016KT 02/M02 A299 RMK A01 T00241023  RH  071%=      5-min Rain = 0
KAM2 220734Z 17017KT 02/M02 A299 RMK A01 T00231024  RH  071%=      5-min Rain = 0
KAM2 220735Z 17015KT 02/M02 A299 RMK A01 T00241024  RH  071%=      5-min Rain = 0
KAM2 220736Z 17014KT 02/M02 A299 RMK A01 T00241024  RH  071%=      5-min Rain = 0
KAM2 220737Z 17014KT 02/M02 A299 RMK A01 T00231024  RH  071%=      5-min Rain = 0
KAM2 220738Z 18016KT 02/M02 A299 RMK A01 T00231024  RH  071%=      5-min Rain = 0
KAM2 220739Z 17017KT 02/M02 A299 RMK A01 T00231024  RH  071%=      5-min Rain = 0
KAM2 220740Z 17015KT 02/M03 A299 RMK A01 T00221025  RH  071%=      5-min Rain = 0
KAM2 220741Z 17014G19KT 02/M02 A299 RMK A01 T00221024  RH  071%=      5-min Rain = 0
KAM2 220742Z 17015KT 02/M02 A299 RMK A01 T00221024  RH  071%=      5-min Rain = 0
KAM2 220743Z 17013KT 02/M02 A299 RMK A01 T00221024  RH  071%=      5-min Rain = 0
KAM2 220744Z 17017KT 02/M02 A299 RMK A01 T00221024  RH  071%=      5-min Rain = 0
KAM2 220745Z 17018KT 02/M02 A299 RMK A01 T00221024  RH  072%=      5-min Rain = 0
KAM2 220746Z 17019KT 02/M02 A299 RMK A01 T00221024  RH  072%=      5-min Rain = 0
KAM2 220747Z 16016KT 02/M02 A299 RMK A01 T00221024  RH  072%=      5-min Rain = 0
KAM2 220748Z 16017KT 02/M02 A2989 RMK A01 T00221024  RH  072%=      5-min Rain = 0
KAM2 220749Z 16016KT 02/M02 A2989 RMK A01 T00221024  RH  072%=      5-min Rain = 0
KAM2 220750Z 16017G22KT 02/M02 A2989 RMK A01 T00211024  RH  072%=      5-min Rain = 0
KAM2 220751Z 16015KT 02/M03 A2989 RMK A01 T00201025  RH  072%=      5-min Rain = 0
KAM2 220752Z 16016KT 02/M02 A2989 RMK A01 T00201024  RH  072%=      5-min Rain = 0
KAM2 220753Z 15014KT 02/M02 A2989 RMK A01 T00201024  RH  073%=      5-min Rain = 0
KAM2 220754Z 15014KT 02/M02 A2989 RMK A01 T00201024  RH  073%=      5-min Rain = 0
KAM2 220755Z 15015G21KT 02/M02 A2989 RMK A01 T00191024  RH  073%=      5-min Rain = 0
KAM2 220756Z 15019KT 02/M02 A2989 RMK A01 T00191024  RH  073%=      5-min Rain = 0
KAM2 220757Z 15020KT 02/M02 A2989 RMK A01 T00191023  RH  074%=      5-min Rain = 0
KAM2 220758Z 15019KT 02/M02 A2989 RMK A01 T00191023  RH  074%=      5-min Rain = 0
KAM2 220759Z 16016KT 02/M02 A2989 RMK A01 T00201022  RH  074%=      5-min Rain = 0
KAM2 220800Z 16014G19KT 02/M02 A2989 RMK A01 T00191023  RH  074%=      5-min Rain = 0
KAM2 220801Z 17015KT 02/M02 A299 RMK A01 T00191023  RH  074%=      5-min Rain = 0
KAM2 220802Z 17014KT 02/M02 A299 RMK A01 T00191023  RH  074%=      5-min Rain = 0
KAM2 220803Z 17014KT 02/M02 A299 RMK A01 T00181023  RH  074%=      5-min Rain = 0
KAM2 220804Z 16015KT 02/M02 A299 RMK A01 T00181022  RH  074%=      5-min Rain = 0
KAM2 220805Z 17015KT 02/M02 A299 RMK A01 T00181022  RH  074%=      5-min Rain = 0
KAM2 220806Z 17013KT 02/M02 A299 RMK A01 T00181022  RH  075%=      5-min Rain = 0
KAM2 220807Z 16014KT 02/M02 A299 RMK A01 T00181022  RH  075%=      5-min Rain = 0
KAM2 220808Z 16011KT 02/M02 A299 RMK A01 T00171022  RH  075%=      5-min Rain = 0
KAM2 220809Z 16013KT 02/M02 A2989 RMK A01 T00171022  RH  075%=      5-min Rain = 0
KAM2 220810Z 15014KT 02/M02 A2989 RMK A01 T00171022  RH  075%=      5-min Rain = 0
KAM2 220811Z 15014KT 02/M02 A2989 RMK A01 T00171021  RH  076%=      5-min Rain = 0
KAM2 220812Z 15014KT 02/M02 A2989 RMK A01 T00171021  RH  076%=      5-min Rain = 0
KAM2 220813Z 15014KT 02/M02 A2989 RMK A01 T00171021  RH  076%=      5-min Rain = 0
KAM2 220814Z 15012KT 02/M02 A2989 RMK A01 T00181020  RH  076%=      5-min Rain = 0
KAM2 220815Z 16014KT 02/M02 A2989 RMK A01 T00181019  RH  076%=      5-min Rain = 0
KAM2 220816Z 16013KT 02/M02 A299 RMK A01 T00181019  RH  076%=      5-min Rain = 0
KAM2 220817Z 16013KT 02/M02 A299 RMK A01 T00181020  RH  076%=      5-min Rain = 0
KAM2 220818Z 16014G20KT 02/M02 A299 RMK A01 T00191019  RH  076%=      5-min Rain = 0
KAM2 220819Z 16012G18KT 02/M02 A2989 RMK A01 T00191019  RH  076%=      5-min Rain = 0
KAM2 220820Z 15016KT 02/M02 A2989 RMK A01 T00191018  RH  076%=      5-min Rain = 0
KAM2 220821Z 15015KT 02/M02 A2989 RMK A01 T00191018  RH  076%=      5-min Rain = 0
KAM2 220822Z 15016G21KT 02/M02 A2989 RMK A01 T00191018  RH  077%=      5-min Rain = 0
KAM2 220823Z 15015KT 02/M02 A2989 RMK A01 T00191017  RH  077%=      5-min Rain = 0
KAM2 220824Z 15013KT 02/M02 A2989 RMK A01 T00191017  RH  077%=      5-min Rain = 0
KAM2 220825Z 16015KT 02/M02 A2989 RMK A01 T00191017  RH  077%=      5-min Rain = 0
KAM2 220826Z 16015KT 02/M02 A299 RMK A01 T00191017  RH  077%=      5-min Rain = 0
KAM2 220827Z 16017KT 02/M02 A299 RMK A01 T00191017  RH  077%=      5-min Rain = 0
KAM2 220828Z 16015KT 02/M02 A299 RMK A01 T00191017  RH  077%=      5-min Rain = 0
KAM2 220829Z 16015KT 02/M02 A299 RMK A01 T00191017  RH  077%=      5-min Rain = 0
KAM2 220830Z 17015KT 02/M02 A299 RMK A01 T00191017  RH  077%=      5-min Rain = 0
KAM2 220831Z 17016KT 02/M02 A2991 RMK A01 T00191017  RH  077%=      5-min Rain = 0
KAM2 220832Z 17016KT 02/M02 A2991 RMK A01 T00191016  RH  077%=      5-min Rain = 0
KAM2 220833Z 16014KT 02/M02 A2991 RMK A01 T00191016  RH  077%=      5-min Rain = 0
KAM2 220834Z 17016KT 02/M02 A299 RMK A01 T00191016  RH  077%=      5-min Rain = 0
KAM2 220835Z 16016KT 02/M02 A299 RMK A01 T00191016  RH  078%=      5-min Rain = 0
KAM2 220836Z 16014KT 02/M02 A299 RMK A01 T00191016  RH  078%=      5-min Rain = 0
KAM2 220837Z 16015KT 02/M02 A299 RMK A01 T00191016  RH  078%=      5-min Rain = 0
KAM2 220838Z 16014KT 02/M02 A299 RMK A01 T00191016  RH  078%=      5-min Rain = 0
KAM2 220839Z 16016KT 02/M02 A299 RMK A01 T00181016  RH  078%=      5-min Rain = 0
KAM2 220840Z 16016G23KT 02/M02 A299 RMK A01 T00181016  RH  078%=      5-min Rain = 0
KAM2 220841Z 17018KT 02/M02 A299 RMK A01 T00181015  RH  078%=      5-min Rain = 0
KAM2 220842Z 16016KT 02/M02 A2991 RMK A01 T00181015  RH  078%=      5-min Rain = 0
KAM2 220843Z 17020KT 02/M02 A2991 RMK A01 T00181016  RH  078%=      5-min Rain = 0
KAM2 220844Z 17018KT 02/M02 A2991 RMK A01 T00181015  RH  079%=      5-min Rain = 0
KAM2 220845Z 16017G22KT 02/M02 A2991 RMK A01 T00181015  RH  079%=      5-min Rain = 0
KAM2 220846Z 16021KT 02/M02 A2991 RMK A01 T00171015  RH  079%=      5-min Rain = 0
KAM2 220847Z 16018KT 02/M02 A2991 RMK A01 T00171015  RH  079%=      5-min Rain = 0
KAM2 220848Z 16018KT 02/M02 A2991 RMK A01 T00171015  RH  080%=      5-min Rain = 0
KAM2 220849Z 16015KT 02/M01 A2992 RMK A01 T00171014  RH  080%=      5-min Rain = 0
KAM2 220850Z 17016KT 02/M01 A2992 RMK A01 T00171014  RH  080%=      5-min Rain = 0
KAM2 220851Z 17017KT 02/M01 A2992 RMK A01 T00171014  RH  080%=      5-min Rain = 0
KAM2 220852Z 17017G23KT 02/M01 A2991 RMK A01 T00171014  RH  080%=      5-min Rain = 0
KAM2 220853Z 16017KT 02/M01 A2991 RMK A01 T00171014  RH  080%=      5-min Rain = 0
KAM2 220854Z 16017G22KT 02/M01 A2991 RMK A01 T00171014  RH  080%=      5-min Rain = 0
KAM2 220855Z 16019KT 02/M01 A2991 RMK A01 T00171013  RH  080%=      5-min Rain = 0
KAM2 220856Z 16018KT 02/M01 A299 RMK A01 T00171013  RH  080%=      5-min Rain = 0
KAM2 220857Z 16016KT 02/M01 A299 RMK A01 T00171013  RH  081%=      5-min Rain = 0
KAM2 220858Z 15016KT 02/M01 A299 RMK A01 T00171013  RH  081%=      5-min Rain = 0
KAM2 220859Z 15017KT 02/M01 A2989 RMK A01 T00171013  RH  081%=      5-min Rain = 0
KAM2 220900Z 15017G22KT 02/M01 A2989 RMK A01 T00171012  RH  081%=      5-min Rain = 0
KAM2 220901Z 14017KT 02/M01 A2989 RMK A01 T00181012  RH  081%=      5-min Rain = 0
KAM2 220902Z 14018KT 02/M01 A2989 RMK A01 T00181011  RH  081%=      5-min Rain = 0
KAM2 220903Z 15016KT 02/M01 A2989 RMK A01 T00181011  RH  081%=      5-min Rain = 0
KAM2 220904Z 14016KT 02/M01 A2989 RMK A01 T00181011  RH  081%=      5-min Rain = 0
KAM2 220905Z 15018KT 02/M01 A2989 RMK A01 T00171011  RH  081%=      5-min Rain = 0
KAM2 220906Z 15016G21KT 02/M01 A2989 RMK A01 T00171011  RH  081%=      5-min Rain = 0
KAM2 220907Z 15016KT 02/M01 A2989 RMK A01 T00171012  RH  081%=      5-min Rain = 0
KAM2 220908Z 15018KT 02/M01 A2989 RMK A01 T00171011  RH  082%=      5-min Rain = 0
KAM2 220909Z 15018KT 02/M01 A2989 RMK A01 T00171011  RH  082%=      5-min Rain = 0
KAM2 220910Z 15019KT 02/M01 A299 RMK A01 T00161011  RH  082%=      5-min Rain = 0
KAM2 220911Z 15018KT 02/M01 A299 RMK A01 T00171011  RH  082%=      5-min Rain = 0
KAM2 220912Z 15017KT 02/M01 A299 RMK A01 T00171011  RH  082%=      5-min Rain = 0
KAM2 220913Z 15016G21KT 02/M01 A299 RMK A01 T00171011  RH  082%=      5-min Rain = 0
KAM2 220914Z 15017KT 02/M01 A299 RMK A01 T00161011  RH  082%=      5-min Rain = 0
KAM2 220915Z 15018KT 02/M01 A299 RMK A01 T00161011  RH  082%=      5-min Rain = 0
KAM2 220916Z 16016G21KT 02/M01 A299 RMK A01 T00161011  RH  082%=      5-min Rain = 0
KAM2 220917Z 16016KT 02/M01 A299 RMK A01 T00161011  RH  082%=      5-min Rain = 0
KAM2 220918Z 15016KT 02/M01 A299 RMK A01 T00161011  RH  082%=      5-min Rain = 0
KAM2 220919Z 16016KT 02/M01 A299 RMK A01 T00161011  RH  082%=      5-min Rain = 0
KAM2 220920Z 16016KT 02/M01 A299 RMK A01 T00161010  RH  083%=      5-min Rain = 0
KAM2 220921Z 16015KT 02/M01 A299 RMK A01 T00161010  RH  083%=      5-min Rain = 0
KAM2 220922Z 16017KT 02/M01 A299 RMK A01 T00161010  RH  083%=      5-min Rain = 0
KAM2 220923Z 16015KT 02/M01 A299 RMK A01 T00161010  RH  083%=      5-min Rain = 0
KAM2 220924Z 15015KT 02/M01 A299 RMK A01 T00161010  RH  083%=      5-min Rain = 0
KAM2 220925Z 16017KT 02/M01 A299 RMK A01 T00161010  RH  083%=      5-min Rain = 0
KAM2 220926Z 15016KT 02/M01 A299 RMK A01 T00161010  RH  083%=      5-min Rain = 0
KAM2 220927Z 15016KT 02/M01 A299 RMK A01 T00151010  RH  083%=      5-min Rain = 0
KAM2 220928Z 15015KT 02/M01 A299 RMK A01 T00151010  RH  084%=      5-min Rain = 0
KAM2 220929Z 14019KT 02/M01 A299 RMK A01 T00151010  RH  084%=      5-min Rain = 0
KAM2 220930Z 14017KT 01/M01 A299 RMK A01 T00141010  RH  084%=      5-min Rain = 0
KAM2 220931Z 14017KT 01/M01 A299 RMK A01 T00131011  RH  084%=      5-min Rain = 0
KAM2 220932Z 15014KT 01/M01 A299 RMK A01 T00111012  RH  085%=      5-min Rain = 0
KAM2 220933Z 16016KT 01/M01 A299 RMK A01 T00111012  RH  085%=      5-min Rain = 0
KAM2 220934Z 15013G18KT 01/M01 A299 RMK A01 T00101012  RH  086%=      5-min Rain = 0
KAM2 220935Z 15016KT 01/M01 A299 RMK A01 T00091011  RH  086%=      5-min Rain = 0
KAM2 220936Z 15016G21KT 01/M01 A2989 RMK A01 T00091011  RH  087%=      5-min Rain = 0
KAM2 220937Z 16020G25KT 01/M01 A2989 RMK A01 T00081010  RH  087%=      5-min Rain = 0
KAM2 220938Z 15018KT 01/M01 A2989 RMK A01 T00081010  RH  088%=      5-min Rain = 0
KAM2 220939Z 15019KT 01/M01 A2988 RMK A01 T00071010  RH  088%=      5-min Rain = 0
KAM2 220940Z 15021KT 01/M01 A2989 RMK A01 T00071009  RH  089%=      5-min Rain = 0
KAM2 220941Z 15019G26KT 01/M01 A2989 RMK A01 T00081009  RH  089%=      5-min Rain = 0
KAM2 220942Z 15017KT 01/M01 A2989 RMK A01 T00081008  RH  089%=      5-min Rain = 0
KAM2 220943Z 15018KT 01/M01 A2989 RMK A01 T00071009  RH  089%=      5-min Rain = 0
KAM2 220944Z 15019KT 01/M01 A2989 RMK A01 T00081008  RH  089%=      5-min Rain = 0
KAM2 220945Z 15016KT 01/M01 A2989 RMK A01 T00071008  RH  089%=      5-min Rain = 0
KAM2 220946Z 15019KT 01/M01 A2989 RMK A01 T00081008  RH  089%=      5-min Rain = 0
KAM2 220947Z 15018KT 01/M01 A2989 RMK A01 T00081007  RH  090%=      5-min Rain = 0
KAM2 220948Z 15018KT 01/M01 A2989 RMK A01 T00091007  RH  090%=      5-min Rain = 0
KAM2 220949Z 15015KT 01/M01 A2989 RMK A01 T00091006  RH  090%=      5-min Rain = 0
KAM2 220950Z 15017KT 01/M01 A2989 RMK A01 T00091006  RH  090%=      5-min Rain = 0
KAM2 220951Z 15020KT 01/M01 A2989 RMK A01 T00091006  RH  090%=      5-min Rain = 0
KAM2 220952Z 15017G22KT 01/M01 A2989 RMK A01 T00101005  RH  090%=      5-min Rain = 0
KAM2 220953Z 15016KT 01/M01 A2989 RMK A01 T00101006  RH  090%=      5-min Rain = 0
KAM2 220954Z 16015KT 01/M01 A2989 RMK A01 T00101005  RH  090%=      5-min Rain = 0
KAM2 220955Z 15018G23KT 01/M01 A2989 RMK A01 T00101005  RH  090%=      5-min Rain = 0
KAM2 220956Z 16019KT 01/M01 A2989 RMK A01 T00111005  RH  090%=      5-min Rain = 0
KAM2 220957Z 15018G23KT 01/M00 A2989 RMK A01 T00111004  RH  090%=      5-min Rain = 0
KAM2 220958Z 15022KT 01/M00 A2989 RMK A01 T00111004  RH  090%=      5-min Rain = 0
KAM2 220959Z 15022KT 01/M00 A2989 RMK A01 T00111004  RH  090%=      5-min Rain = 0
KAM2 221000Z 15021KT 01/M00 A2989 RMK A01 T00111004  RH  090%=      5-min Rain = 0
KAM2 221001Z 15019KT 01/M00 A2989 RMK A01 T00111004  RH  090%=      5-min Rain = 0
KAM2 221002Z 15020KT 01/M00 A2989 RMK A01 T00111004  RH  090%=      5-min Rain = 0
KAM2 221003Z 15019KT 01/M00 A2989 RMK A01 T00111003  RH  090%=      5-min Rain = 0
KAM2 221004Z 15017G22KT 01/M00 A2989 RMK A01 T00121003  RH  090%=      5-min Rain = 0
KAM2 221005Z 15021G26KT 01/M00 A2989 RMK A01 T00121003  RH  090%=      5-min Rain = 0
KAM2 221006Z 15019G24KT 01/M00 A2989 RMK A01 T00121003  RH  090%=      5-min Rain = 0
KAM2 221007Z 15019G24KT 01/M00 A2989 RMK A01 T00111004  RH  090%=      5-min Rain = 0
KAM2 221008Z 15021KT 01/M00 A2988 RMK A01 T00121003  RH  090%=      5-min Rain = 0
KAM2 221009Z 15021KT 01/M00 A2989 RMK A01 T00121003  RH  090%=      5-min Rain = 0
KAM2 221010Z 15018KT 01/M00 A2989 RMK A01 T00121003  RH  090%=      5-min Rain = 0
KAM2 221011Z 15019KT 01/M00 A2989 RMK A01 T00121003  RH  090%=      5-min Rain = 0
KAM2 221012Z 16018KT 01/M00 A2989 RMK A01 T00121003  RH  090%=      5-min Rain = 0
KAM2 221013Z 15019KT 01/M00 A2989 RMK A01 T00111003  RH  090%=      5-min Rain = 0
KAM2 221014Z 15019KT 01/M00 A2989 RMK A01 T00111004  RH  090%=      5-min Rain = 0
KAM2 221015Z 16019G24KT 01/M00 A2989 RMK A01 T00111003  RH  090%=      5-min Rain = 0
KAM2 221016Z 15021G26KT 01/M00 A2989 RMK A01 T00111003  RH  090%=      5-min Rain = 0
KAM2 221017Z 15019KT 01/M00 A2989 RMK A01 T00111003  RH  090%=      5-min Rain = 0
KAM2 221018Z 15018KT 01/M00 A299 RMK A01 T00111003  RH  090%=      5-min Rain = 0
KAM2 221019Z 15019KT 01/M00 A299 RMK A01 T00111003  RH  090%=      5-min Rain = 0
KAM2 221020Z 15018KT 01/M00 A299 RMK A01 T00111003  RH  090%=      5-min Rain = 0
KAM2 221021Z 15019KT 01/M00 A299 RMK A01 T00111003  RH  090%=      5-min Rain = 0
KAM2 221022Z 15018KT 01/M00 A299 RMK A01 T00111003  RH  090%=      5-min Rain = 0
KAM2 221023Z 15017KT 01/M00 A299 RMK A01 T00121002  RH  090%=      5-min Rain = 0
KAM2 221024Z 15017KT 01/M00 A299 RMK A01 T00121002  RH  090%=      5-min Rain = 0
KAM2 221025Z 15018G23KT 01/M00 A299 RMK A01 T00121002  RH  090%=      5-min Rain = 0
KAM2 221026Z 15016G22KT 01/M00 A299 RMK A01 T00121002  RH  090%=      5-min Rain = 0
KAM2 221027Z 15017G23KT 01/M00 A299 RMK A01 T00121003  RH  090%=      5-min Rain = 0
KAM2 221028Z 15015KT 01/M00 A299 RMK A01 T00121002  RH  090%=      5-min Rain = 0
KAM2 221029Z 15012KT 01/M00 A299 RMK A01 T00121002  RH  090%=      5-min Rain = 0
KAM2 221030Z 15015KT 01/M00 A299 RMK A01 T00121002  RH  090%=      5-min Rain = 0
KAM2 221031Z 16017KT 01/M00 A299 RMK A01 T00121002  RH  090%=      5-min Rain = 0
KAM2 221032Z 14015G20KT 01/M00 A299 RMK A01 T00121002  RH  090%=      5-min Rain = 0
KAM2 221033Z 15017KT 01/M00 A299 RMK A01 T00121002  RH  090%=      5-min Rain = 0
KAM2 221034Z 15018KT 01/M00 A299 RMK A01 T00121002  RH  091%=      5-min Rain = 0
KAM2 221035Z 15015KT 01/M00 A299 RMK A01 T00121002  RH  091%=      5-min Rain = 0
KAM2 221036Z 15012KT 01/M00 A299 RMK A01 T00121002  RH  091%=      5-min Rain = 0
KAM2 221037Z 15014G19KT 01/M00 A299 RMK A01 T00121002  RH  091%=      5-min Rain = 0
KAM2 221038Z 15015KT 01/M00 A299 RMK A01 T00121002  RH  090%=      5-min Rain = 0
KAM2 221039Z 16014KT 01/M00 A299 RMK A01 T00121002  RH  091%=      5-min Rain = 0
KAM2 221040Z 15014KT 01/M00 A299 RMK A01 T00121002  RH  091%=      5-min Rain = 0
KAM2 221041Z 15014KT 01/M00 A299 RMK A01 T00121001  RH  091%=      5-min Rain = 0
KAM2 221042Z 15014KT 01/M00 A299 RMK A01 T00121001  RH  091%=      5-min Rain = 0
KAM2 221043Z 15012G18KT 01/M00 A299 RMK A01 T00121001  RH  091%=      5-min Rain = 0
KAM2 221044Z 15018KT 01/00 A299 RMK A01 T001300-0  RH  091%=      5-min Rain = 0
KAM2 221045Z 15014KT 01/00 A299 RMK A01 T001300-0  RH  091%=      5-min Rain = 0
KAM2 221046Z 15013KT 01/00 A299 RMK A01 T00130000  RH  091%=      5-min Rain = 0
KAM2 221047Z 15013KT 01/00 A2989 RMK A01 T00130000  RH  091%=      5-min Rain = 0
KAM2 221048Z 16014KT 01/00 A2989 RMK A01 T00130000  RH  091%=      5-min Rain = 0
KAM2 221049Z 15015KT 01/00 A2989 RMK A01 T00130000  RH  091%=      5-min Rain = 0
KAM2 221050Z 15017KT 01/00 A2989 RMK A01 T00130000  RH  091%=      5-min Rain = 0
KAM2 221051Z 15015KT 01/00 A2989 RMK A01 T00130001  RH  091%=      5-min Rain = 0
KAM2 221052Z 16013KT 01/00 A2989 RMK A01 T00130000  RH  092%=      5-min Rain = 0
KAM2 221053Z 16014KT 01/00 A2989 RMK A01 T00130001  RH  092%=      5-min Rain = 0
KAM2 221054Z 15011KT 01/00 A2989 RMK A01 T00130001  RH  092%=      5-min Rain = 0
KAM2 221055Z 14014KT 01/00 A2989 RMK A01 T00120001  RH  092%=      5-min Rain = 0
KAM2 221056Z 15013G18KT 01/00 A2989 RMK A01 T00120001  RH  092%=      5-min Rain = 0
KAM2 221057Z 15016KT 01/00 A2989 RMK A01 T00120001  RH  093%=      5-min Rain = 0
KAM2 221058Z 14016KT 01/00 A2989 RMK A01 T00120002  RH  093%=      5-min Rain = 0
KAM2 221059Z 15015KT 01/00 A2989 RMK A01 T00120002  RH  093%=      5-min Rain = 0
KAM2 221100Z 15013KT 01/00 A2989 RMK A01 T00120002  RH  093%=      5-min Rain = 0
KAM2 221101Z 15016KT 01/00 A2989 RMK A01 T00110001  RH  093%=      5-min Rain = 0
KAM2 221102Z 15015KT 01/00 A2989 RMK A01 T00120002  RH  093%=      5-min Rain = 0
KAM2 221103Z 15016KT 01/00 A2989 RMK A01 T00120002  RH  093%=      5-min Rain = 0
KAM2 221104Z 15011KT 01/00 A2989 RMK A01 T00110002  RH  093%=      5-min Rain = 0
KAM2 221105Z 15011KT 01/00 A2989 RMK A01 T00110002  RH  093%=      5-min Rain = 0
KAM2 221106Z 15011KT 01/00 A2989 RMK A01 T00120002  RH  093%=      5-min Rain = 0
KAM2 221107Z 15016KT 01/00 A2989 RMK A01 T00120002  RH  093%=      5-min Rain = 0
KAM2 221108Z 15017KT 01/00 A2988 RMK A01 T00110002  RH  093%=      5-min Rain = 0
KAM2 221109Z 15014KT 01/00 A2989 RMK A01 T00110002  RH  093%=      5-min Rain = 0
KAM2 221110Z 16016KT 01/00 A2988 RMK A01 T00110002  RH  094%=      5-min Rain = 0
KAM2 221111Z 15015KT 01/00 A2988 RMK A01 T00110002  RH  094%=      5-min Rain = 0
KAM2 221112Z 14012KT 01/00 A2988 RMK A01 T00110002  RH  094%=      5-min Rain = 0
KAM2 221113Z 15012KT 01/00 A2988 RMK A01 T00110002  RH  093%=      5-min Rain = 0
KAM2 221114Z 15014KT 01/00 A2988 RMK A01 T00110001  RH  093%=      5-min Rain = 0
KAM2 221115Z 15014KT 01/00 A2988 RMK A01 T00110001  RH  093%=      5-min Rain = 0
KAM2 221116Z 15014KT 01/00 A2988 RMK A01 T00110001  RH  093%=      5-min Rain = 0
KAM2 221117Z 15012KT 01/00 A2988 RMK A01 T00110001  RH  093%=      5-min Rain = 0
KAM2 221118Z 15015KT 01/00 A2989 RMK A01 T00110001  RH  093%=      5-min Rain = 0
KAM2 221119Z 15012KT 01/00 A2989 RMK A01 T00110001  RH  093%=      5-min Rain = 0
KAM2 221120Z 15014KT 01/00 A2989 RMK A01 T00110001  RH  093%=      5-min Rain = 0
KAM2 221121Z 15013KT 01/00 A2989 RMK A01 T00110001  RH  093%=      5-min Rain = 0
KAM2 221122Z 15010KT 01/00 A2989 RMK A01 T00110002  RH  093%=      5-min Rain = 0
KAM2 221123Z 15009KT 01/00 A2989 RMK A01 T00110001  RH  093%=      5-min Rain = 0
KAM2 221124Z 14011KT 01/00 A2989 RMK A01 T00110001  RH  093%=      5-min Rain = 0
KAM2 221125Z 14009KT 01/00 A2989 RMK A01 T00110002  RH  093%=      5-min Rain = 0
KAM2 221126Z 14008KT 01/00 A2989 RMK A01 T00110002  RH  093%=      5-min Rain = 0
KAM2 221127Z 14009KT 01/00 A2989 RMK A01 T00120002  RH  093%=      5-min Rain = 0
KAM2 221128Z 14010KT 01/00 A2989 RMK A01 T00120002  RH  093%=      5-min Rain = 0
KAM2 221129Z 15012KT 01/00 A2989 RMK A01 T00120003  RH  094%=      5-min Rain = 0
KAM2 221130Z 15012KT 01/00 A2989 RMK A01 T00120003  RH  094%=      5-min Rain = 0
KAM2 221131Z 14012KT 01/00 A2989 RMK A01 T00110003  RH  094%=      5-min Rain = 0
KAM2 221132Z 14009KT 01/00 A2989 RMK A01 T00110003  RH  095%=      5-min Rain = 0
KAM2 221133Z 14012KT 01/00 A2989 RMK A01 T00110004  RH  095%=      5-min Rain = 0
KAM2 221134Z 15010KT 01/00 A2989 RMK A01 T00110003  RH  095%=      5-min Rain = 0
KAM2 221135Z 14011KT 01/00 A299 RMK A01 T00100003  RH  095%=      5-min Rain = 0
KAM2 221136Z 14011KT 01/00 A299 RMK A01 T00100003  RH  095%=      5-min Rain = 0
KAM2 221137Z 14009KT 01/00 A299 RMK A01 T00100004  RH  095%=      5-min Rain = 0
KAM2 221138Z 14008KT 01/00 A299 RMK A01 T00100004  RH  095%=      5-min Rain = 0
KAM2 221139Z 14008KT 01/00 A299 RMK A01 T00100004  RH  095%=      5-min Rain = 0
KAM2 221140Z 14010KT 01/00 A299 RMK A01 T00100003  RH  095%=      5-min Rain = 0
KAM2 221141Z 14015KT 01/00 A299 RMK A01 T00100004  RH  095%=      5-min Rain = 0
KAM2 221142Z 14014KT 01/00 A299 RMK A01 T00100003  RH  095%=      5-min Rain = 0
KAM2 221143Z 14012KT 01/00 A299 RMK A01 T00090003  RH  095%=      5-min Rain = 0
KAM2 221144Z 14012KT 01/00 A299 RMK A01 T00090003  RH  096%=      5-min Rain = 0
KAM2 221145Z 14010KT 01/00 A299 RMK A01 T00090003  RH  096%=      5-min Rain = 0
KAM2 221146Z 15009KT 01/00 A299 RMK A01 T00090003  RH  096%=      5-min Rain = 0
KAM2 221147Z 15011KT 01/00 A299 RMK A01 T00090003  RH  096%=      5-min Rain = 0
KAM2 221148Z 15012KT 01/00 A299 RMK A01 T00090003  RH  096%=      5-min Rain = 0
KAM2 221149Z 15010KT 01/00 A299 RMK A01 T00090003  RH  096%=      5-min Rain = 0
KAM2 221150Z 15013KT 01/00 A299 RMK A01 T00090003  RH  096%=      5-min Rain = 0
KAM2 221151Z 14009KT 01/00 A299 RMK A01 T00090003  RH  096%=      5-min Rain = 0
KAM2 221152Z 15010KT 01/00 A299 RMK A01 T00090003  RH  096%=      5-min Rain = 0
KAM2 221153Z 15013KT 01/00 A299 RMK A01 T00090003  RH  096%=      5-min Rain = 0
KAM2 221154Z 15011KT 01/00 A299 RMK A01 T00090003  RH  096%=      5-min Rain = 0
KAM2 221155Z 14013KT 01/00 A299 RMK A01 T00090003  RH  096%=      5-min Rain = 0
KAM2 221156Z 15012KT 01/00 A299 RMK A01 T00080003  RH  096%=      5-min Rain = 0
KAM2 221157Z 15011KT 01/00 A299 RMK A01 T00080003  RH  096%=      5-min Rain = 0
KAM2 221158Z 15013KT 01/00 A299 RMK A01 T00080003  RH  096%=      5-min Rain = 0
KAM2 221159Z 15012KT 01/00 A299 RMK A01 T00080003  RH  096%=      5-min Rain = 0
KAM2 221200Z 15010KT 01/00 A2991 RMK A01 T00080003  RH  096%=      5-min Rain = 0
KAM2 221201Z 15012KT 01/00 A2991 RMK A01 T00080003  RH  096%=      5-min Rain = 0
KAM2 221202Z 15010KT 01/00 A299 RMK A01 T00080003  RH  096%=      5-min Rain = 0
KAM2 221203Z 15011KT 01/00 A299 RMK A01 T00080003  RH  096%=      5-min Rain = 0
KAM2 221204Z 14009KT 01/00 A2991 RMK A01 T00080003  RH  096%=      5-min Rain = 0
KAM2 221205Z 13012KT 01/00 A2991 RMK A01 T00080003  RH  096%=      5-min Rain = 0
KAM2 221206Z 14011KT 01/00 A2991 RMK A01 T00080003  RH  096%=      5-min Rain = 0
KAM2 221207Z 14011KT 01/00 A2991 RMK A01 T00080003  RH  096%=      5-min Rain = 0
KAM2 221208Z 14011KT 01/00 A2991 RMK A01 T00080003  RH  096%=      5-min Rain = 0
KAM2 221209Z 14009KT 01/00 A2991 RMK A01 T00080003  RH  096%=      5-min Rain = 0
KAM2 221210Z 13010KT 01/00 A2991 RMK A01 T00080003  RH  096%=      5-min Rain = 0
KAM2 221211Z 14010KT 01/00 A2991 RMK A01 T00080003  RH  096%=      5-min Rain = 0
KAM2 221212Z 15010KT 01/00 A2991 RMK A01 T00080003  RH  096%=      5-min Rain = 0
KAM2 221213Z 14008KT 01/00 A2991 RMK A01 T00080003  RH  096%=      5-min Rain = 0
KAM2 221214Z 15006KT 01/00 A2991 RMK A01 T00080003  RH  096%=      5-min Rain = 0
KAM2 221215Z 14007KT 01/00 A2991 RMK A01 T00080003  RH  096%=      5-min Rain = 0
KAM2 221216Z 15008KT 01/00 A2991 RMK A01 T00080003  RH  096%=      5-min Rain = 0
KAM2 221217Z 15007KT 01/00 A2991 RMK A01 T00080003  RH  096%=      5-min Rain = 0
KAM2 221218Z 15008KT 01/00 A2991 RMK A01 T00090003  RH  096%=      5-min Rain = 0
KAM2 221219Z 14007KT 01/00 A2991 RMK A01 T00080003  RH  096%=      5-min Rain = 0
KAM2 221220Z 14008KT 01/00 A2991 RMK A01 T00080003  RH  096%=      5-min Rain = 0
KAM2 221221Z 14007KT 01/00 A2991 RMK A01 T00080003  RH  096%=      5-min Rain = 0
KAM2 221222Z 13008KT 01/00 A2991 RMK A01 T00080003  RH  097%=      5-min Rain = 0
KAM2 221223Z 13009KT 01/00 A2991 RMK A01 T00080003  RH  097%=      5-min Rain = 0
KAM2 221224Z 13009KT 01/00 A2991 RMK A01 T00090004  RH  096%=      5-min Rain = 0
KAM2 221225Z 13009KT 01/00 A2992 RMK A01 T00090004  RH  096%=      5-min Rain = 0
KAM2 221226Z 14010KT 01/00 A2992 RMK A01 T00090004  RH  096%=      5-min Rain = 0
KAM2 221227Z 14008KT 01/00 A2992 RMK A01 T00090003  RH  096%=      5-min Rain = 0
KAM2 221228Z 14009KT 01/00 A2992 RMK A01 T00090004  RH  096%=      5-min Rain = 0
KAM2 221229Z 14008KT 01/00 A2992 RMK A01 T00090004  RH  096%=      5-min Rain = 0
KAM2 221230Z 14009KT 01/00 A2992 RMK A01 T00090004  RH  096%=      5-min Rain = 0
KAM2 221231Z 14008KT 01/00 A2992 RMK A01 T00090004  RH  097%=      5-min Rain = 0
KAM2 221232Z 14007KT 01/00 A2992 RMK A01 T00090004  RH  097%=      5-min Rain = 0
KAM2 221233Z 14008KT 01/00 A2992 RMK A01 T00090004  RH  097%=      5-min Rain = 0
KAM2 221234Z 14010KT 01/00 A2992 RMK A01 T00090004  RH  097%=      5-min Rain = 0
KAM2 221235Z 13009KT 01/00 A2992 RMK A01 T00090004  RH  097%=      5-min Rain = 0
KAM2 221236Z 13011KT 01/00 A2992 RMK A01 T00080004  RH  097%=      5-min Rain = 0
KAM2 221237Z 14012KT 01/00 A2992 RMK A01 T00080004  RH  097%=      5-min Rain = 0
KAM2 221238Z 14012KT 01/00 A2992 RMK A01 T00080004  RH  097%=      5-min Rain = 0
KAM2 221239Z 13011KT 01/00 A2992 RMK A01 T00080004  RH  097%=      5-min Rain = 0
KAM2 221240Z 14010KT 01/00 A2992 RMK A01 T00080004  RH  097%=      5-min Rain = 0
KAM2 221241Z 14009KT 01/00 A2992 RMK A01 T00070003  RH  097%=      5-min Rain = 0
KAM2 221242Z 15008KT 01/00 A2992 RMK A01 T00070003  RH  097%=      5-min Rain = 0
KAM2 221243Z 13008KT 01/00 A2992 RMK A01 T00070003  RH  097%=      5-min Rain = 0
KAM2 221244Z 14011KT 01/00 A2992 RMK A01 T00070004  RH  097%=      5-min Rain = 0
KAM2 221245Z 12010KT 01/00 A2992 RMK A01 T00070003  RH  097%=      5-min Rain = 0
KAM2 221246Z 13011KT 01/00 A2992 RMK A01 T00080004  RH  097%=      5-min Rain = 0
KAM2 221247Z 14010KT 01/00 A2992 RMK A01 T00070003  RH  097%=      5-min Rain = 0
KAM2 221248Z 14011KT 01/00 A2992 RMK A01 T00070004  RH  097%=      5-min Rain = 0
KAM2 221249Z 14011KT 01/00 A2992 RMK A01 T00070004  RH  097%=      5-min Rain = 0
KAM2 221250Z 14010KT 01/00 A2992 RMK A01 T00070004  RH  098%=      5-min Rain = 0
KAM2 221251Z 13010KT 01/00 A2992 RMK A01 T00070004  RH  098%=      5-min Rain = 0
KAM2 221252Z 14009KT 01/00 A2992 RMK A01 T00070004  RH  098%=      5-min Rain = 0
KAM2 221253Z 14008KT 01/00 A2992 RMK A01 T00070004  RH  098%=      5-min Rain = 0
KAM2 221254Z 14010KT 01/00 A2992 RMK A01 T00070004  RH  098%=      5-min Rain = 0
KAM2 221255Z 14007KT 01/00 A2992 RMK A01 T00070004  RH  098%=      5-min Rain = 0
KAM2 221256Z 13007KT 01/00 A2992 RMK A01 T00070004  RH  098%=      5-min Rain = 0
KAM2 221257Z 14007KT 01/00 A2992 RMK A01 T00070004  RH  098%=      5-min Rain = 0
KAM2 221258Z 14006KT 01/00 A2992 RMK A01 T00070004  RH  098%=      5-min Rain = 0
KAM2 221259Z 13007KT 01/00 A2992 RMK A01 T00070004  RH  098%=      5-min Rain = 0
KAM2 221300Z 14006KT 01/00 A2992 RMK A01 T00070004  RH  098%=      5-min Rain = 0
KAM2 221301Z 13008KT 01/00 A2992 RMK A01 T00070004  RH  098%=      5-min Rain = 0
KAM2 221302Z 13008KT 01/01 A2992 RMK A01 T00070005  RH  098%=      5-min Rain = 0
KAM2 221303Z 13008KT 01/00 A2992 RMK A01 T00070004  RH  098%=      5-min Rain = 0
KAM2 221304Z 14007KT 01/01 A2992 RMK A01 T00070005  RH  098%=      5-min Rain = 0
KAM2 221305Z 13008KT 01/01 A2992 RMK A01 T00070005  RH  098%=      5-min Rain = 0
KAM2 221306Z 13009KT 01/01 A2992 RMK A01 T00070005  RH  098%=      5-min Rain = 0
KAM2 221307Z 13008KT 01/00 A2992 RMK A01 T00070004  RH  098%=      5-min Rain = 0
KAM2 221308Z 14007KT 01/00 A2992 RMK A01 T00070004  RH  098%=      5-min Rain = 0
KAM2 221309Z 15006KT 01/00 A2992 RMK A01 T00070004  RH  098%=      5-min Rain = 0
KAM2 221310Z 15005KT 01/00 A2992 RMK A01 T00070004  RH  098%=      5-min Rain = 0
KAM2 221311Z 15008KT 01/00 A2992 RMK A01 T00070004  RH  098%=      5-min Rain = 0
KAM2 221312Z 15006KT 01/00 A2992 RMK A01 T00070004  RH  098%=      5-min Rain = 0
KAM2 221313Z 15006KT 01/01 A2992 RMK A01 T00070005  RH  098%=      5-min Rain = 0
KAM2 221314Z 14006KT 01/00 A2992 RMK A01 T00070004  RH  098%=      5-min Rain = 0
KAM2 221315Z 14006KT 01/01 A2992 RMK A01 T00070005  RH  098%=      5-min Rain = 0
KAM2 221316Z 14009KT 01/01 A2992 RMK A01 T00070005  RH  098%=      5-min Rain = 0
KAM2 221317Z 13010KT 01/01 A2992 RMK A01 T00070005  RH  098%=      5-min Rain = 0
KAM2 221318Z 14010KT 01/01 A2992 RMK A01 T00070005  RH  098%=      5-min Rain = 0
KAM2 221319Z 14009KT 01/01 A2992 RMK A01 T00070005  RH  098%=      5-min Rain = 0
KAM2 221320Z 14009KT 01/01 A2992 RMK A01 T00070005  RH  098%=      5-min Rain = 0
KAM2 221321Z 14009KT 01/01 A2992 RMK A01 T00070005  RH  098%=      5-min Rain = 0
KAM2 221322Z 14010KT 01/01 A2992 RMK A01 T00070005  RH  099%=      5-min Rain = 0
KAM2 221323Z 14010KT 01/01 A2992 RMK A01 T00070005  RH  098%=      5-min Rain = 0
KAM2 221324Z 14010KT 01/01 A2992 RMK A01 T00070005  RH  098%=      5-min Rain = 0
KAM2 221325Z 14008KT 01/00 A2992 RMK A01 T00060004  RH  098%=      5-min Rain = 0
KAM2 221326Z 15009KT 01/00 A2992 RMK A01 T00060004  RH  098%=      5-min Rain = 0
KAM2 221327Z 15009KT 01/00 A2992 RMK A01 T00060004  RH  099%=      5-min Rain = 0
KAM2 221328Z 15008KT 01/00 A2992 RMK A01 T00070004  RH  099%=      5-min Rain = 0
KAM2 221329Z 15010KT 01/00 A2992 RMK A01 T00060004  RH  099%=      5-min Rain = 0
KAM2 221330Z 15008KT 01/00 A2992 RMK A01 T00060004  RH  099%=      5-min Rain = 0
KAM2 221331Z 15008KT 01/01 A2992 RMK A01 T00070005  RH  099%=      5-min Rain = 0
KAM2 221332Z 15008KT 01/01 A2993 RMK A01 T00070005  RH  099%=      5-min Rain = 0
KAM2 221333Z 15010KT 01/01 A2993 RMK A01 T00070005  RH  099%=      5-min Rain = 0
KAM2 221334Z 15010KT 01/00 A2993 RMK A01 T00060004  RH  099%=      5-min Rain = 0
KAM2 221335Z 15009KT 01/00 A2993 RMK A01 T00060004  RH  099%=      5-min Rain = 0
KAM2 221336Z 15007KT 01/00 A2993 RMK A01 T00060004  RH  099%=      5-min Rain = 0
KAM2 221337Z 15008KT 01/00 A2993 RMK A01 T00060004  RH  099%=      5-min Rain = 0
KAM2 221338Z 15009KT 01/00 A2993 RMK A01 T00060004  RH  099%=      5-min Rain = 0
KAM2 221339Z 15009KT 01/00 A2993 RMK A01 T00060004  RH  099%=      5-min Rain = 0
KAM2 221340Z 14008KT 01/00 A2993 RMK A01 T00060004  RH  099%=      5-min Rain = 0
KAM2 221341Z 14007KT 01/00 A2993 RMK A01 T00060004  RH  099%=      5-min Rain = 0
KAM2 221342Z 14008KT 01/01 A2993 RMK A01 T00060005  RH  099%=      5-min Rain = 0
KAM2 221343Z 14007KT 01/01 A2993 RMK A01 T00060005  RH  099%=      5-min Rain = 0
KAM2 221344Z 14007KT 01/01 A2993 RMK A01 T00070005  RH  099%=      5-min Rain = 0
KAM2 221345Z 14006KT 01/01 A2993 RMK A01 T00070006  RH  099%=      5-min Rain = 0
KAM2 221346Z 15006KT 01/01 A2993 RMK A01 T00070005  RH  099%=      5-min Rain = 0
KAM2 221347Z 14008KT 01/01 A2993 RMK A01 T00070006  RH  099%=      5-min Rain = 0
KAM2 221348Z 14007KT 01/01 A2994 RMK A01 T00070006  RH  099%=      5-min Rain = 0
KAM2 221349Z 14006KT 01/01 A2994 RMK A01 T00070006  RH  099%=      5-min Rain = 0
KAM2 221350Z 15007KT 01/01 A2994 RMK A01 T00070006  RH  099%=      5-min Rain = 0
KAM2 221351Z 15006KT 01/01 A2994 RMK A01 T00070006  RH  099%=      5-min Rain = 0
KAM2 221352Z 16007KT 01/01 A2994 RMK A01 T00070006  RH  099%=      5-min Rain = 0
KAM2 221353Z 15006KT 01/01 A2994 RMK A01 T00070006  RH  099%=      5-min Rain = 0
KAM2 221354Z 14006KT 01/01 A2994 RMK A01 T00070005  RH  099%=      5-min Rain = 0
KAM2 221355Z 15005KT 01/01 A2994 RMK A01 T00070005  RH  099%=      5-min Rain = 0
KAM2 221356Z 15005KT 01/01 A2994 RMK A01 T00070006  RH  099%=      5-min Rain = 0
KAM2 221357Z 15005KT 01/01 A2994 RMK A01 T00070006  RH  099%=      5-min Rain = 0
KAM2 221358Z 15007KT 01/01 A2994 RMK A01 T00070006  RH  099%=      5-min Rain = 0
KAM2 221359Z 15008KT 01/01 A2994 RMK A01 T00070006  RH  099%=      5-min Rain = 0
KAM2 221400Z 15008KT 01/01 A2994 RMK A01 T00070006  RH  099%=      5-min Rain = 0
KAM2 221401Z 14007KT 01/01 A2994 RMK A01 T00070006  RH  099%=      5-min Rain = 0
KAM2 221402Z 13007KT 01/01 A2994 RMK A01 T00070006  RH  099%=      5-min Rain = 0
KAM2 221403Z 13007KT 01/01 A2994 RMK A01 T00070006  RH  099%=      5-min Rain = 0
KAM2 221404Z 14007KT 01/01 A2994 RMK A01 T00080007  RH  099%=      5-min Rain = 0
KAM2 221405Z 15006KT 01/01 A2994 RMK A01 T00080007  RH  099%=      5-min Rain = 0
KAM2 221406Z 16007KT 01/01 A2995 RMK A01 T00080007  RH  099%=      5-min Rain = 0
KAM2 221407Z 15006KT 01/01 A2995 RMK A01 T00080007  RH  099%=      5-min Rain = 0
KAM2 221408Z 14006KT 01/01 A2995 RMK A01 T00080007  RH  099%=      5-min Rain = 0
KAM2 221409Z 15007KT 01/01 A2995 RMK A01 T00080007  RH  099%=      5-min Rain = 0
KAM2 221410Z 15007KT 01/01 A2995 RMK A01 T00080007  RH  099%=      5-min Rain = 0
KAM2 221411Z 15007KT 01/01 A2995 RMK A01 T00080007  RH  099%=      5-min Rain = 0
KAM2 221412Z 14007KT 01/01 A2995 RMK A01 T00080007  RH  099%=      5-min Rain = 0
KAM2 221413Z 15008KT 01/01 A2995 RMK A01 T00080007  RH  099%=      5-min Rain = 0
KAM2 221414Z 15009KT 01/01 A2995 RMK A01 T00080007  RH  099%=      5-min Rain = 0
KAM2 221415Z 15009KT 01/01 A2995 RMK A01 T00080006  RH  099%=      5-min Rain = 0
KAM2 221416Z 15010KT 01/01 A2995 RMK A01 T00080007  RH  099%=      5-min Rain = 0
KAM2 221417Z 16009KT 01/01 A2995 RMK A01 T00070006  RH  099%=      5-min Rain = 0
KAM2 221418Z 15009KT 01/01 A2995 RMK A01 T00070006  RH  099%=      5-min Rain = 0
KAM2 221419Z 14009KT 01/01 A2995 RMK A01 T00070006  RH  099%=      5-min Rain = 0
KAM2 221420Z 15009KT 01/01 A2995 RMK A01 T00070006  RH  099%=      5-min Rain = 0
KAM2 221421Z 14010KT 01/01 A2995 RMK A01 T00080007  RH  099%=      5-min Rain = 0
KAM2 221422Z 14010KT 01/01 A2995 RMK A01 T00080007  RH  099%=      5-min Rain = 0
KAM2 221423Z 15009KT 01/01 A2995 RMK A01 T00080007  RH  099%=      5-min Rain = 0
KAM2 221424Z 15008KT 01/01 A2995 RMK A01 T00080007  RH  099%=      5-min Rain = 0
KAM2 221425Z 15009KT 01/01 A2995 RMK A01 T00080007  RH  099%=      5-min Rain = 0
KAM2 221426Z 15009KT 01/01 A2995 RMK A01 T00080007  RH  099%=      5-min Rain = 0
KAM2 221427Z 16008KT 01/01 A2996 RMK A01 T00080007  RH  099%=      5-min Rain = 0
KAM2 221428Z 15008KT 01/01 A2996 RMK A01 T00080007  RH  099%=      5-min Rain = 0
KAM2 221429Z 15009KT 01/01 A2996 RMK A01 T00080007  RH  099%=      5-min Rain = 0
KAM2 221430Z 15010KT 01/01 A2996 RMK A01 T00080007  RH  099%=      5-min Rain = 0
KAM2 221431Z 15011KT 01/01 A2996 RMK A01 T00080007  RH  099%=      5-min Rain = 0
KAM2 221432Z 15011KT 01/01 A2995 RMK A01 T00080007  RH  099%=      5-min Rain = 0
KAM2 221433Z 15010KT 01/01 A2995 RMK A01 T00080007  RH  099%=      5-min Rain = 0
KAM2 221434Z 15010KT 01/01 A2995 RMK A01 T00080007  RH  099%=      5-min Rain = 0
KAM2 221435Z 16009KT 01/01 A2995 RMK A01 T00090008  RH  099%=      5-min Rain = 0
KAM2 221436Z 15007KT 01/01 A2996 RMK A01 T00090007  RH  099%=      5-min Rain = 0
KAM2 221437Z 14009KT 01/01 A2996 RMK A01 T00090008  RH  099%=      5-min Rain = 0
KAM2 221438Z 14009KT 01/01 A2996 RMK A01 T00100009  RH  099%=      5-min Rain = 0
KAM2 221439Z 15008KT 01/01 A2996 RMK A01 T00100009  RH  099%=      5-min Rain = 0
KAM2 221440Z 15009KT 01/01 A2996 RMK A01 T00100009  RH  099%=      5-min Rain = 0
KAM2 221441Z 15007KT 01/01 A2996 RMK A01 T00100009  RH  099%=      5-min Rain = 0
KAM2 221442Z 15008KT 01/01 A2996 RMK A01 T00100008  RH  099%=      5-min Rain = 0
KAM2 221443Z 15006KT 01/01 A2996 RMK A01 T00100008  RH  099%=      5-min Rain = 0
KAM2 221444Z 14008KT 01/01 A2996 RMK A01 T00100009  RH  099%=      5-min Rain = 0
KAM2 221445Z 14009KT 01/01 A2996 RMK A01 T00100008  RH  099%=      5-min Rain = 0
KAM2 221446Z 14010KT 01/01 A2996 RMK A01 T00100009  RH  099%=      5-min Rain = 0
KAM2 221447Z 15010KT 01/01 A2996 RMK A01 T00100009  RH  099%=      5-min Rain = 0
KAM2 221448Z 15009KT 01/01 A2996 RMK A01 T00100008  RH  099%=      5-min Rain = 0
KAM2 221449Z 15008KT 01/01 A2996 RMK A01 T00100009  RH  099%=      5-min Rain = 0
KAM2 221450Z 15010KT 01/01 A2996 RMK A01 T00110010  RH  099%=      5-min Rain = 0
KAM2 221451Z 15011KT 01/01 A2996 RMK A01 T00110010  RH  099%=      5-min Rain = 0
KAM2 221452Z 15011KT 01/01 A2996 RMK A01 T00100009  RH  099%=      5-min Rain = 0
KAM2 221453Z 15010KT 01/01 A2996 RMK A01 T00110009  RH  099%=      5-min Rain = 0
KAM2 221454Z 15007KT 01/01 A2996 RMK A01 T00110009  RH  099%=      5-min Rain = 0
KAM2 221455Z 16008KT 01/01 A2996 RMK A01 T00110010  RH  099%=      5-min Rain = 0
KAM2 221456Z 15007KT 01/01 A2996 RMK A01 T00110010  RH  099%=      5-min Rain = 0
KAM2 221457Z 15012KT 01/01 A2997 RMK A01 T00120011  RH  099%=      5-min Rain = 0
KAM2 221458Z 15010KT 01/01 A2997 RMK A01 T00120010  RH  099%=      5-min Rain = 0
KAM2 221459Z 15011KT 01/01 A2997 RMK A01 T00110010  RH  099%=      5-min Rain = 0
KAM2 221500Z 16010KT 01/01 A2997 RMK A01 T00110010  RH  099%=      5-min Rain = 0
KAM2 221501Z 16010KT 01/01 A2997 RMK A01 T00110010  RH  099%=      5-min Rain = 0
KAM2 221502Z 15010KT 01/01 A2997 RMK A01 T00110010  RH  099%=      5-min Rain = 0
KAM2 221503Z 16010KT 01/01 A2997 RMK A01 T00110010  RH  099%=      5-min Rain = 0
KAM2 221504Z 15009KT 01/01 A2997 RMK A01 T00110010  RH  099%=      5-min Rain = 0
KAM2 221505Z 16010KT 01/01 A2997 RMK A01 T00120010  RH  099%=      5-min Rain = 0
KAM2 221506Z 17011KT 01/01 A2997 RMK A01 T00120011  RH  099%=      5-min Rain = 0
KAM2 221507Z 16012KT 01/01 A2997 RMK A01 T00120011  RH  099%=      5-min Rain = 0
KAM2 221508Z 16012KT 01/01 A2997 RMK A01 T00120010  RH  099%=      5-min Rain = 0
KAM2 221509Z 16013KT 01/01 A2997 RMK A01 T00120011  RH  099%=      5-min Rain = 0
KAM2 221510Z 16011KT 01/01 A2997 RMK A01 T00120010  RH  099%=      5-min Rain = 0
KAM2 221511Z 16013KT 01/01 A2997 RMK A01 T00120010  RH  099%=      5-min Rain = 0
KAM2 221512Z 15011KT 01/01 A2997 RMK A01 T00120010  RH  099%=      5-min Rain = 0
KAM2 221513Z 15010KT 01/01 A2997 RMK A01 T00120010  RH  099%=      5-min Rain = 0
KAM2 221514Z 16009KT 01/01 A2997 RMK A01 T00120011  RH  099%=      5-min Rain = 0
KAM2 221515Z 16010KT 01/01 A2997 RMK A01 T00120011  RH  099%=      5-min Rain = 0
KAM2 221516Z 15009KT 01/01 A2997 RMK A01 T00130011  RH  099%=      5-min Rain = 0
KAM2 221517Z 14009KT 01/01 A2998 RMK A01 T00120011  RH  099%=      5-min Rain = 0
KAM2 221518Z 15009KT 01/01 A2998 RMK A01 T00120011  RH  099%=      5-min Rain = 0
KAM2 221519Z 15008KT 01/01 A2998 RMK A01 T00130011  RH  099%=      5-min Rain = 0
KAM2 221520Z 16009KT 01/01 A2998 RMK A01 T00120011  RH  099%=      5-min Rain = 0
KAM2 221521Z 15008KT 01/01 A2998 RMK A01 T00130011  RH  099%=      5-min Rain = 0
KAM2 221522Z 16010KT 01/01 A2997 RMK A01 T00130011  RH  099%=      5-min Rain = 0
KAM2 221523Z 15009KT 01/01 A2997 RMK A01 T00130011  RH  099%=      5-min Rain = 0
KAM2 221524Z 15010KT 01/01 A2997 RMK A01 T00130011  RH  099%=      5-min Rain = 0
KAM2 221525Z 16010KT 01/01 A2997 RMK A01 T00130011  RH  099%=      5-min Rain = 0
KAM2 221526Z 16009KT 01/01 A2997 RMK A01 T00130011  RH  099%=      5-min Rain = 0
KAM2 221527Z 18010KT 01/01 A2997 RMK A01 T00130011  RH  099%=      5-min Rain = 0
KAM2 221528Z 16010KT 01/01 A2997 RMK A01 T00130011  RH  099%=      5-min Rain = 0
KAM2 221529Z 16009KT 01/01 A2997 RMK A01 T00130012  RH  099%=      5-min Rain = 0
KAM2 221530Z 16011KT 01/01 A2997 RMK A01 T00140012  RH  099%=      5-min Rain = 0
KAM2 221531Z 16010KT 01/01 A2997 RMK A01 T00140012  RH  099%=      5-min Rain = 0
KAM2 221532Z 16011KT 01/01 A2997 RMK A01 T00140012  RH  099%=      5-min Rain = 0
KAM2 221533Z 17011KT 01/01 A2997 RMK A01 T00140012  RH  099%=      5-min Rain = 0
KAM2 221534Z 16013KT 01/01 A2997 RMK A01 T00140013  RH  099%=      5-min Rain = 0
KAM2 221535Z 16015KT 01/01 A2997 RMK A01 T00140012  RH  099%=      5-min Rain = 0
KAM2 221536Z 16016KT 01/01 A2997 RMK A01 T00130011  RH  099%=      5-min Rain = 0
KAM2 221537Z 16014KT 01/01 A2997 RMK A01 T00130011  RH  099%=      5-min Rain = 0
KAM2 221538Z 16016KT 01/01 A2997 RMK A01 T00130011  RH  099%=      5-min Rain = 0
KAM2 221539Z 16015KT 01/01 A2997 RMK A01 T00130011  RH  099%=      5-min Rain = 0
KAM2 221540Z 16016KT 01/01 A2997 RMK A01 T00130011  RH  099%=      5-min Rain = 0
KAM2 221541Z 16015KT 01/01 A2997 RMK A01 T00130011  RH  099%=      5-min Rain = 0
KAM2 221542Z 16015KT 01/01 A2996 RMK A01 T00130011  RH  098%=      5-min Rain = 0
KAM2 221543Z 16014KT 01/01 A2996 RMK A01 T00140011  RH  098%=      5-min Rain = 0
KAM2 221544Z 16015KT 01/01 A2996 RMK A01 T00140012  RH  099%=      5-min Rain = 0
KAM2 221545Z 16014KT 01/01 A2996 RMK A01 T00140012  RH  098%=      5-min Rain = 0
KAM2 221546Z 16015KT 02/01 A2997 RMK A01 T00150013  RH  098%=      5-min Rain = 0
KAM2 221547Z 16014KT 02/01 A2997 RMK A01 T00150013  RH  098%=      5-min Rain = 0
KAM2 221548Z 16014KT 02/01 A2997 RMK A01 T00150013  RH  098%=      5-min Rain = 0
KAM2 221549Z 16013KT 02/01 A2997 RMK A01 T00150012  RH  098%=      5-min Rain = 0
KAM2 221550Z 16013KT 02/01 A2997 RMK A01 T00150013  RH  098%=      5-min Rain = 0
KAM2 221551Z 16013KT 02/01 A2997 RMK A01 T00160013  RH  098%=      5-min Rain = 0
KAM2 221552Z 16011KT 02/01 A2997 RMK A01 T00160013  RH  098%=      5-min Rain = 0
KAM2 221553Z 16012KT 02/01 A2997 RMK A01 T00160012  RH  098%=      5-min Rain = 0
KAM2 221554Z 16011KT 02/01 A2997 RMK A01 T00160013  RH  098%=      5-min Rain = 0
KAM2 221555Z 15012KT 02/01 A2997 RMK A01 T00170014  RH  098%=      5-min Rain = 0
KAM2 221556Z 16014KT 02/01 A2996 RMK A01 T00170014  RH  098%=      5-min Rain = 0
KAM2 221557Z 16012KT 02/01 A2996 RMK A01 T00170014  RH  098%=      5-min Rain = 0
KAM2 221558Z 16012KT 02/01 A2996 RMK A01 T00170014  RH  098%=      5-min Rain = 0
KAM2 221559Z 15010KT 02/01 A2996 RMK A01 T00180014  RH  098%=      5-min Rain = 0
KAM2 221600Z 15012KT 02/02 A2996 RMK A01 T00180015  RH  098%=      5-min Rain = 0
KAM2 221601Z 15013KT 02/02 A2996 RMK A01 T00180015  RH  097%=      5-min Rain = 0
KAM2 221602Z 15012KT 02/01 A2996 RMK A01 T00180014  RH  097%=      5-min Rain = 0
KAM2 221603Z 15011KT 02/01 A2996 RMK A01 T00180014  RH  097%=      5-min Rain = 0
KAM2 221604Z 15009KT 02/02 A2996 RMK A01 T00190015  RH  097%=      5-min Rain = 0
KAM2 221605Z 15014KT 02/02 A2996 RMK A01 T00190015  RH  097%=      5-min Rain = 0
KAM2 221606Z 15015KT 02/01 A2996 RMK A01 T00190014  RH  097%=      5-min Rain = 0
KAM2 221607Z 15015KT 02/01 A2996 RMK A01 T00190014  RH  096%=      5-min Rain = 0
KAM2 221608Z 15011KT 02/01 A2996 RMK A01 T00190013  RH  096%=      5-min Rain = 0
KAM2 221609Z 15012KT 02/01 A2997 RMK A01 T00190013  RH  096%=      5-min Rain = 0
KAM2 221610Z 15012KT 02/01 A2997 RMK A01 T00190014  RH  096%=      5-min Rain = 0
KAM2 221611Z 16012KT 02/01 A2997 RMK A01 T00190013  RH  096%=      5-min Rain = 0
KAM2 221612Z 17014KT 02/01 A2997 RMK A01 T00190014  RH  096%=      5-min Rain = 0
KAM2 221613Z 16013KT 02/01 A2997 RMK A01 T00200014  RH  096%=      5-min Rain = 0
KAM2 221614Z 16013KT 02/01 A2997 RMK A01 T00200014  RH  095%=      5-min Rain = 0
KAM2 221615Z 16014KT 02/01 A2997 RMK A01 T00200013  RH  095%=      5-min Rain = 0
KAM2 221616Z 16014KT 02/01 A2997 RMK A01 T00200013  RH  095%=      5-min Rain = 0
KAM2 221617Z 16014KT 02/01 A2996 RMK A01 T00200013  RH  095%=      5-min Rain = 0
KAM2 221618Z 15011KT 02/01 A2997 RMK A01 T00200012  RH  095%=      5-min Rain = 0
KAM2 221619Z 15011KT 02/01 A2997 RMK A01 T00210013  RH  095%=      5-min Rain = 0
KAM2 221620Z 15011KT 02/01 A2997 RMK A01 T00210014  RH  095%=      5-min Rain = 0
KAM2 221621Z 16012KT 02/01 A2997 RMK A01 T00210013  RH  095%=      5-min Rain = 0
KAM2 221622Z 15012KT 02/01 A2997 RMK A01 T00220013  RH  094%=      5-min Rain = 0
KAM2 221623Z 16014KT 02/01 A2997 RMK A01 T00220013  RH  094%=      5-min Rain = 0
KAM2 221624Z 15012KT 02/01 A2997 RMK A01 T00220013  RH  094%=      5-min Rain = 0
KAM2 221625Z 14011KT 02/01 A2997 RMK A01 T00220013  RH  094%=      5-min Rain = 0
KAM2 221626Z 15012KT 02/01 A2996 RMK A01 T00220013  RH  094%=      5-min Rain = 0
KAM2 221627Z 15010KT 02/01 A2997 RMK A01 T00220013  RH  094%=      5-min Rain = 0
KAM2 221628Z 16009KT 02/01 A2997 RMK A01 T00230014  RH  094%=      5-min Rain = 0
KAM2 221629Z 16009KT 02/02 A2997 RMK A01 T00240015  RH  094%=      5-min Rain = 0
KAM2 221630Z 16010KT 02/02 A2997 RMK A01 T00240015  RH  094%=      5-min Rain = 0
KAM2 221631Z 16009KT 03/01 A2997 RMK A01 T00250014  RH  093%=      5-min Rain = 0
KAM2 221632Z 17011KT 03/01 A2997 RMK A01 T00250014  RH  093%=      5-min Rain = 0
KAM2 221633Z 16010KT 03/01 A2997 RMK A01 T00250014  RH  093%=      5-min Rain = 0
KAM2 221634Z 16010KT 03/01 A2997 RMK A01 T00250014  RH  092%=      5-min Rain = 0
KAM2 221635Z 16012KT 03/01 A2997 RMK A01 T00250014  RH  092%=      5-min Rain = 0
KAM2 221636Z 16010KT 03/01 A2996 RMK A01 T00250014  RH  092%=      5-min Rain = 0
KAM2 221637Z 15012KT 03/01 A2996 RMK A01 T00250014  RH  092%=      5-min Rain = 0
KAM2 221638Z 16012KT 03/02 A2996 RMK A01 T00260015  RH  092%=      5-min Rain = 0
KAM2 221639Z 16010KT 03/01 A2996 RMK A01 T00260014  RH  092%=      5-min Rain = 0
KAM2 221640Z 16010KT 03/02 A2996 RMK A01 T00270015  RH  092%=      5-min Rain = 0
KAM2 221641Z 17011KT 03/02 A2996 RMK A01 T00280015  RH  092%=      5-min Rain = 0
KAM2 221642Z 17011KT 03/02 A2996 RMK A01 T00280015  RH  091%=      5-min Rain = 0
KAM2 221643Z 16009KT 03/02 A2997 RMK A01 T00280015  RH  091%=      5-min Rain = 0
KAM2 221644Z 16011KT 03/02 A2996 RMK A01 T00290015  RH  091%=      5-min Rain = 0
KAM2 221645Z 15012KT 03/02 A2996 RMK A01 T00280015  RH  091%=      5-min Rain = 0
KAM2 221646Z 16011KT 03/01 A2996 RMK A01 T00270014  RH  091%=      5-min Rain = 0
KAM2 221647Z 15010KT 03/02 A2996 RMK A01 T00270015  RH  091%=      5-min Rain = 0
KAM2 221648Z 15009KT 03/02 A2996 RMK A01 T00280015  RH  091%=      5-min Rain = 0
KAM2 221649Z 15010KT 03/02 A2996 RMK A01 T00290016  RH  091%=      5-min Rain = 0
KAM2 221650Z 15010KT 03/02 A2996 RMK A01 T00290015  RH  091%=      5-min Rain = 0
KAM2 221651Z 15008KT 03/02 A2996 RMK A01 T00290016  RH  091%=      5-min Rain = 0
KAM2 221652Z 15008KT 03/02 A2996 RMK A01 T00300017  RH  091%=      5-min Rain = 0
KAM2 221653Z 16008KT 03/02 A2996 RMK A01 T00310017  RH  091%=      5-min Rain = 0
KAM2 221654Z 15011KT 03/02 A2996 RMK A01 T00320018  RH  090%=      5-min Rain = 0
KAM2 221655Z 16011KT 03/02 A2996 RMK A01 T00320017  RH  090%=      5-min Rain = 0
KAM2 221656Z 15012KT 03/02 A2996 RMK A01 T00320016  RH  090%=      5-min Rain = 0
KAM2 221657Z 15011KT 03/02 A2996 RMK A01 T00320016  RH  089%=      5-min Rain = 0
KAM2 221658Z 16009KT 03/02 A2996 RMK A01 T00320016  RH  089%=      5-min Rain = 0
KAM2 221659Z 15009KT 03/02 A2996 RMK A01 T00320016  RH  090%=      5-min Rain = 0
KAM2 221700Z 15009KT 03/02 A2996 RMK A01 T00320016  RH  089%=      5-min Rain = 0
KAM2 221701Z 15011KT 03/02 A2995 RMK A01 T00320016  RH  089%=      5-min Rain = 0
KAM2 221702Z 15010KT 03/02 A2995 RMK A01 T00320016  RH  089%=      5-min Rain = 0
KAM2 221703Z 16010KT 03/02 A2995 RMK A01 T00330017  RH  089%=      5-min Rain = 0
KAM2 221704Z 17011KT 03/02 A2995 RMK A01 T00340018  RH  089%=      5-min Rain = 0
KAM2 221705Z 17010KT 04/02 A2995 RMK A01 T00350019  RH  089%=      5-min Rain = 0
KAM2 221706Z 17010KT 04/02 A2995 RMK A01 T00360019  RH  088%=      5-min Rain = 0
KAM2 221707Z 16010KT 04/02 A2995 RMK A01 T00370019  RH  088%=      5-min Rain = 0
KAM2 221708Z 17010KT 04/02 A2995 RMK A01 T00370019  RH  088%=      5-min Rain = 0
KAM2 221709Z 16011KT 04/02 A2995 RMK A01 T00380019  RH  087%=      5-min Rain = 0
KAM2 221710Z 15011KT 04/02 A2995 RMK A01 T00380018  RH  087%=      5-min Rain = 0
KAM2 221711Z 15011KT 04/02 A2995 RMK A01 T00380018  RH  087%=      5-min Rain = 0
KAM2 221712Z 15010KT 04/02 A2995 RMK A01 T00370018  RH  087%=      5-min Rain = 0
KAM2 221713Z 16009KT 04/02 A2995 RMK A01 T00380019  RH  087%=      5-min Rain = 0
KAM2 221714Z 17010KT 04/02 A2995 RMK A01 T00390019  RH  087%=      5-min Rain = 0
KAM2 221715Z 17010KT 04/02 A2995 RMK A01 T00390019  RH  087%=      5-min Rain = 0
KAM2 221716Z 16008KT 04/02 A2995 RMK A01 T00400020  RH  087%=      5-min Rain = 0
KAM2 221717Z 16010KT 04/02 A2995 RMK A01 T00410021  RH  087%=      5-min Rain = 0
KAM2 221718Z 16011KT 04/02 A2995 RMK A01 T00410019  RH  086%=      5-min Rain = 0
KAM2 221719Z 15011KT 04/02 A2995 RMK A01 T00400018  RH  086%=      5-min Rain = 0
KAM2 221720Z 16009KT 04/02 A2994 RMK A01 T00390018  RH  086%=      5-min Rain = 0
KAM2 221721Z 14009KT 04/02 A2994 RMK A01 T00390019  RH  087%=      5-min Rain = 0
KAM2 221722Z 14009KT 04/02 A2994 RMK A01 T00400021  RH  087%=      5-min Rain = 0
KAM2 221723Z 15011KT 04/02 A2994 RMK A01 T00420020  RH  086%=      5-min Rain = 0
KAM2 221724Z 15009KT 04/02 A2994 RMK A01 T00420019  RH  085%=      5-min Rain = 0
KAM2 221725Z 16009KT 04/02 A2994 RMK A01 T00410020  RH  086%=      5-min Rain = 0
KAM2 221726Z 16010KT 04/02 A2994 RMK A01 T00420020  RH  086%=      5-min Rain = 0
KAM2 221727Z 16010KT 04/02 A2994 RMK A01 T00420020  RH  085%=      5-min Rain = 0
KAM2 221728Z 16010KT 04/02 A2994 RMK A01 T00420020  RH  085%=      5-min Rain = 0
KAM2 221729Z 16009KT 04/02 A2994 RMK A01 T00420019  RH  085%=      5-min Rain = 0
KAM2 221730Z 16008KT 04/02 A2994 RMK A01 T00420020  RH  085%=      5-min Rain = 0
KAM2 221731Z 17009KT 04/02 A2994 RMK A01 T00430020  RH  085%=      5-min Rain = 0
KAM2 221732Z 17010KT 04/02 A2994 RMK A01 T00440020  RH  085%=      5-min Rain = 0
KAM2 221733Z 16009KT 05/02 A2994 RMK A01 T00450021  RH  085%=      5-min Rain = 0
KAM2 221734Z 16010KT 05/02 A2994 RMK A01 T00460022  RH  084%=      5-min Rain = 0
KAM2 221735Z 17010KT 05/02 A2994 RMK A01 T00470021  RH  083%=      5-min Rain = 0
KAM2 221736Z 15010KT 05/02 A2994 RMK A01 T00470021  RH  083%=      5-min Rain = 0
KAM2 221737Z 16010KT 05/02 A2994 RMK A01 T00470022  RH  084%=      5-min Rain = 0
KAM2 221738Z 16010KT 05/02 A2994 RMK A01 T00480022  RH  083%=      5-min Rain = 0
KAM2 221739Z 17009KT 05/02 A2993 RMK A01 T00480021  RH  083%=      5-min Rain = 0
KAM2 221740Z 17008KT 05/02 A2993 RMK A01 T00490022  RH  083%=      5-min Rain = 0
KAM2 221741Z 16010KT 05/02 A2993 RMK A01 T00500023  RH  082%=      5-min Rain = 0
KAM2 221742Z 17009KT 05/02 A2993 RMK A01 T00510022  RH  082%=      5-min Rain = 0
KAM2 221743Z 17007KT 05/02 A2993 RMK A01 T00520023  RH  082%=      5-min Rain = 0
KAM2 221744Z 16007KT 05/02 A2993 RMK A01 T00520023  RH  081%=      5-min Rain = 0
KAM2 221745Z 16008KT 05/02 A2993 RMK A01 T00520023  RH  082%=      5-min Rain = 0
KAM2 221746Z 18010KT 05/02 A2993 RMK A01 T00530024  RH  081%=      5-min Rain = 0
KAM2 221747Z 18008KT 05/02 A2993 RMK A01 T00530023  RH  081%=      5-min Rain = 0
KAM2 221748Z 17008KT 05/02 A2993 RMK A01 T00530024  RH  082%=      5-min Rain = 0
KAM2 221749Z 16009KT 06/03 A2993 RMK A01 T00550025  RH  081%=      5-min Rain = 0
KAM2 221750Z 17008KT 06/03 A2993 RMK A01 T00560025  RH  080%=      5-min Rain = 0
KAM2 221751Z 17007KT 06/02 A2993 RMK A01 T00570024  RH  080%=      5-min Rain = 0
KAM2 221752Z 16008KT 06/03 A2993 RMK A01 T00570025  RH  080%=      5-min Rain = 0
KAM2 221753Z 15008KT 06/02 A2993 RMK A01 T00580024  RH  079%=      5-min Rain = 0
KAM2 221754Z 16010KT 06/02 A2993 RMK A01 T00580024  RH  078%=      5-min Rain = 0
KAM2 221755Z 17009KT 06/02 A2993 RMK A01 T00570022  RH  078%=      5-min Rain = 0
KAM2 221756Z 16009KT 06/02 A2993 RMK A01 T00560022  RH  079%=      5-min Rain = 0
KAM2 221757Z 15009KT 06/02 A2993 RMK A01 T00560022  RH  079%=      5-min Rain = 0
KAM2 221758Z 16008KT 06/02 A2993 RMK A01 T00560023  RH  079%=      5-min Rain = 0
KAM2 221759Z 17007KT 06/02 A2993 RMK A01 T00560023  RH  079%=      5-min Rain = 0
KAM2 221800Z 18008KT 06/02 A2993 RMK A01 T00570024  RH  079%=      5-min Rain = 0
KAM2 221801Z 16007KT 06/02 A2993 RMK A01 T00590023  RH  078%=      5-min Rain = 0
KAM2 221802Z 16007KT 06/02 A2993 RMK A01 T00590024  RH  078%=      5-min Rain = 0
KAM2 221803Z 16007KT 06/02 A2992 RMK A01 T00600024  RH  077%=      5-min Rain = 0
KAM2 221804Z 15008KT 06/02 A2992 RMK A01 T00610024  RH  077%=      5-min Rain = 0
KAM2 221805Z 17010KT 06/02 A2992 RMK A01 T00620024  RH  076%=      5-min Rain = 0
KAM2 221806Z 17010KT 06/02 A2992 RMK A01 T00620022  RH  076%=      5-min Rain = 0
KAM2 221807Z 16010KT 06/02 A2992 RMK A01 T00610022  RH  076%=      5-min Rain = 0
KAM2 221808Z 18011KT 06/02 A2992 RMK A01 T00610022  RH  076%=      5-min Rain = 0
KAM2 221809Z 17013KT 06/02 A2992 RMK A01 T00620022  RH  076%=      5-min Rain = 0
KAM2 221810Z 18011KT 06/02 A2992 RMK A01 T00620022  RH  075%=      5-min Rain = 0
KAM2 221811Z 19012KT 06/02 A2992 RMK A01 T00630021  RH  075%=      5-min Rain = 0
KAM2 221812Z 17011KT 06/02 A2992 RMK A01 T00630021  RH  075%=      5-min Rain = 0
KAM2 221813Z 17012KT 06/02 A2992 RMK A01 T00630021  RH  075%=      5-min Rain = 0
KAM2 221814Z 17014KT 06/02 A2992 RMK A01 T00620021  RH  075%=      5-min Rain = 0
KAM2 221815Z 17011KT 06/02 A2992 RMK A01 T00620021  RH  075%=      5-min Rain = 0
KAM2 221816Z 17010KT 06/02 A2992 RMK A01 T00620021  RH  075%=      5-min Rain = 0
KAM2 221817Z 17010KT 06/02 A2992 RMK A01 T00610021  RH  075%=      5-min Rain = 0
KAM2 221818Z 17010KT 06/02 A2992 RMK A01 T00620021  RH  075%=      5-min Rain = 0
KAM2 221819Z 20011KT 06/02 A2992 RMK A01 T00620021  RH  075%=      5-min Rain = 0
KAM2 221820Z 20012KT 06/02 A2992 RMK A01 T00620020  RH  075%=      5-min Rain = 0
KAM2 221821Z 18009KT 06/02 A2992 RMK A01 T00610020  RH  075%=      5-min Rain = 0
KAM2 221822Z 17011KT 06/02 A2992 RMK A01 T00610021  RH  075%=      5-min Rain = 0
KAM2 221823Z 18010KT 06/02 A2992 RMK A01 T00620021  RH  075%=      5-min Rain = 0
KAM2 221824Z 18010KT 06/02 A2992 RMK A01 T00630022  RH  075%=      5-min Rain = 0
KAM2 221825Z 16008KT 06/02 A2992 RMK A01 T00640023  RH  075%=      5-min Rain = 0
KAM2 221826Z 17007KT 07/02 A2992 RMK A01 T00650023  RH  074%=      5-min Rain = 0
KAM2 221827Z 17010KT 07/02 A2992 RMK A01 T00660022  RH  073%=      5-min Rain = 0
KAM2 221828Z 17011KT 07/02 A2991 RMK A01 T00650022  RH  074%=      5-min Rain = 0
KAM2 221829Z 17008KT 07/02 A2991 RMK A01 T00650022  RH  074%=      5-min Rain = 0
KAM2 221830Z 19009KT 07/02 A2991 RMK A01 T00660023  RH  074%=      5-min Rain = 0
KAM2 221831Z 19009KT 07/02 A2991 RMK A01 T00650022  RH  074%=      5-min Rain = 0
KAM2 221832Z 18009KT 07/02 A2991 RMK A01 T00650022  RH  074%=      5-min Rain = 0
KAM2 221833Z 18012KT 07/02 A2991 RMK A01 T00660023  RH  074%=      5-min Rain = 0
KAM2 221834Z 18012KT 07/02 A2991 RMK A01 T00660021  RH  073%=      5-min Rain = 0
KAM2 221835Z 18011KT 07/02 A2991 RMK A01 T00650021  RH  073%=      5-min Rain = 0
KAM2 221836Z 18011KT 06/02 A2991 RMK A01 T00640021  RH  074%=      5-min Rain = 0
KAM2 221837Z 18007KT 06/02 A2991 RMK A01 T00640021  RH  074%=      5-min Rain = 0
KAM2 221838Z 19011KT 06/02 A2991 RMK A01 T00640021  RH  074%=      5-min Rain = 0
KAM2 221839Z 20010KT 06/02 A2991 RMK A01 T00640022  RH  074%=      5-min Rain = 0
KAM2 221840Z 18013KT 06/02 A2991 RMK A01 T00640022  RH  074%=      5-min Rain = 0
KAM2 221841Z 17010KT 06/02 A2991 RMK A01 T00640021  RH  074%=      5-min Rain = 0
KAM2 221842Z 18013KT 07/02 A2991 RMK A01 T00650022  RH  074%=      5-min Rain = 0
KAM2 221843Z 18010KT 07/02 A2991 RMK A01 T00650021  RH  074%=      5-min Rain = 0
KAM2 221844Z 18009KT 07/02 A2991 RMK A01 T00650022  RH  074%=      5-min Rain = 0
KAM2 221845Z 19010KT 07/02 A2991 RMK A01 T00680024  RH  074%=      5-min Rain = 0
KAM2 221846Z 20007KT 07/02 A2991 RMK A01 T00680023  RH  073%=      5-min Rain = 0
KAM2 221847Z 19007KT 07/02 A2991 RMK A01 T00680021  RH  072%=      5-min Rain = 0
KAM2 221848Z 18007KT 07/02 A2991 RMK A01 T00650021  RH  073%=      5-min Rain = 0
KAM2 221849Z 20009KT 07/02 A299 RMK A01 T00660022  RH  074%=      5-min Rain = 0
KAM2 221850Z 18012KT 07/02 A299 RMK A01 T00660021  RH  073%=      5-min Rain = 0
KAM2 221851Z 18009KT 07/02 A299 RMK A01 T00660022  RH  074%=      5-min Rain = 0
KAM2 221852Z 17009KT 07/02 A299 RMK A01 T00660022  RH  073%=      5-min Rain = 0
KAM2 221853Z 17012KT 07/02 A299 RMK A01 T00670023  RH  074%=      5-min Rain = 0
KAM2 221854Z 16010KT 07/02 A299 RMK A01 T00670022  RH  073%=      5-min Rain = 0
KAM2 221855Z 17011KT 07/02 A299 RMK A01 T00660022  RH  074%=      5-min Rain = 0
KAM2 221856Z 18009KT 07/02 A299 RMK A01 T00660022  RH  074%=      5-min Rain = 0
KAM2 221857Z 19009KT 07/02 A299 RMK A01 T00670023  RH  073%=      5-min Rain = 0
KAM2 221858Z 19010KT 07/02 A299 RMK A01 T00670023  RH  073%=      5-min Rain = 0
KAM2 221859Z 19005KT 07/02 A299 RMK A01 T00660022  RH  073%=      5-min Rain = 0
KAM2 221900Z 18008KT 07/02 A299 RMK A01 T00650023  RH  074%=      5-min Rain = 0
KAM2 221901Z 17009KT 07/03 A299 RMK A01 T00680025  RH  074%=      5-min Rain = 0
KAM2 221902Z 17009KT 07/02 A299 RMK A01 T00690023  RH  072%=      5-min Rain = 0
KAM2 221903Z 15008KT 07/02 A299 RMK A01 T00680022  RH  073%=      5-min Rain = 0
KAM2 221904Z 16007KT 07/02 A299 RMK A01 T00670022  RH  073%=      5-min Rain = 0
KAM2 221905Z 18009KT 07/02 A2989 RMK A01 T00660022  RH  073%=      5-min Rain = 0
KAM2 221906Z 19009KT 07/02 A2989 RMK A01 T00660022  RH  073%=      5-min Rain = 0
KAM2 221907Z 20009KT 07/02 A2989 RMK A01 T00670022  RH  073%=      5-min Rain = 0
KAM2 221908Z 20009KT 07/02 A2989 RMK A01 T00670022  RH  073%=      5-min Rain = 0
KAM2 221909Z 21007KT 07/02 A2989 RMK A01 T00670022  RH  073%=      5-min Rain = 0
KAM2 221910Z 18010KT 07/02 A2989 RMK A01 T00660022  RH  073%=      5-min Rain = 0
KAM2 221911Z 17010KT 07/02 A2989 RMK A01 T00670022  RH  073%=      5-min Rain = 0
KAM2 221912Z 17009KT 07/02 A2989 RMK A01 T00660022  RH  073%=      5-min Rain = 0
KAM2 221913Z 16010KT 07/02 A2989 RMK A01 T00670023  RH  073%=      5-min Rain = 0
KAM2 221914Z 16009KT 07/02 A2989 RMK A01 T00690023  RH  073%=      5-min Rain = 0
KAM2 221915Z 16009KT 07/02 A2989 RMK A01 T00700023  RH  072%=      5-min Rain = 0
KAM2 221916Z 15010KT 07/02 A2989 RMK A01 T00700023  RH  072%=      5-min Rain = 0
KAM2 221917Z 15012KT 07/02 A2989 RMK A01 T00700023  RH  072%=      5-min Rain = 0
KAM2 221918Z 16010KT 07/02 A2989 RMK A01 T00700023  RH  072%=      5-min Rain = 0
KAM2 221919Z 15010KT 07/02 A2989 RMK A01 T00710024  RH  072%=      5-min Rain = 0
KAM2 221920Z 16009KT 07/02 A2989 RMK A01 T00700022  RH  072%=      5-min Rain = 0
KAM2 221921Z 17010KT 07/02 A2988 RMK A01 T00690023  RH  073%=      5-min Rain = 0
KAM2 221922Z 15010KT 07/02 A2988 RMK A01 T00690023  RH  073%=      5-min Rain = 0
KAM2 221923Z 14008KT 07/02 A2988 RMK A01 T00690023  RH  073%=      5-min Rain = 0
KAM2 221924Z 14008KT 07/02 A2988 RMK A01 T00700024  RH  073%=      5-min Rain = 0
KAM2 221925Z 15006KT 07/03 A2988 RMK A01 T00720025  RH  072%=      5-min Rain = 0
KAM2 221926Z 16010KT 07/03 A2988 RMK A01 T00740025  RH  071%=      5-min Rain = 0
KAM2 221927Z 15010KT 08/03 A2988 RMK A01 T00750025  RH  071%=      5-min Rain = 0
KAM2 221928Z 17009KT 08/03 A2988 RMK A01 T00750025  RH  070%=      5-min Rain = 0
KAM2 221929Z 16005KT 07/02 A2988 RMK A01 T00740024  RH  071%=      5-min Rain = 0
KAM2 221930Z 17010KT 07/03 A2988 RMK A01 T00740025  RH  071%=      5-min Rain = 0
KAM2 221931Z 17008KT 07/02 A2988 RMK A01 T00730023  RH  071%=      5-min Rain = 0
KAM2 221932Z 16005KT 07/02 A2988 RMK A01 T00700023  RH  072%=      5-min Rain = 0
KAM2 221933Z 14008KT 07/03 A2987 RMK A01 T00710025  RH  072%=      5-min Rain = 0
KAM2 221934Z 16008G13KT 07/03 A2987 RMK A01 T00740025  RH  071%=      5-min Rain = 0
KAM2 221935Z 17009KT 08/03 A2987 RMK A01 T00760025  RH  070%=      5-min Rain = 0
KAM2 221936Z 16007KT 07/02 A2987 RMK A01 T00740024  RH  071%=      5-min Rain = 0
KAM2 221937Z 15007KT 07/03 A2987 RMK A01 T00730025  RH  071%=      5-min Rain = 0
KAM2 221938Z 16007KT 07/03 A2987 RMK A01 T00740025  RH  071%=      5-min Rain = 0
KAM2 221939Z 16011KT 08/03 A2986 RMK A01 T00750026  RH  071%=      5-min Rain = 0
KAM2 221940Z 16010KT 08/03 A2986 RMK A01 T00760025  RH  070%=      5-min Rain = 0
KAM2 221941Z 16008KT 08/03 A2986 RMK A01 T00760025  RH  070%=      5-min Rain = 0
KAM2 221942Z 17011KT 08/03 A2986 RMK A01 T00790026  RH  070%=      5-min Rain = 0
KAM2 221943Z 17010KT 08/03 A2986 RMK A01 T00800026  RH  069%=      5-min Rain = 0
KAM2 221944Z 17009KT 08/03 A2986 RMK A01 T00820027  RH  068%=      5-min Rain = 0
KAM2 221945Z 16008KT 08/03 A2986 RMK A01 T00820026  RH  068%=      5-min Rain = 0
KAM2 221946Z 17006KT 08/03 A2986 RMK A01 T00800025  RH  068%=      5-min Rain = 0
KAM2 221947Z 14009G14KT 08/03 A2986 RMK A01 T00780025  RH  069%=      5-min Rain = 0
KAM2 221948Z 14011KT 08/03 A2986 RMK A01 T00780025  RH  069%=      5-min Rain = 0
KAM2 221949Z 15012KT 08/03 A2986 RMK A01 T00790025  RH  068%=      5-min Rain = 0
KAM2 221950Z 16011KT 08/03 A2986 RMK A01 T00800025  RH  068%=      5-min Rain = 0
KAM2 221951Z 15011KT 08/03 A2986 RMK A01 T00810026  RH  069%=      5-min Rain = 0
KAM2 221952Z 17009KT 08/03 A2985 RMK A01 T00830026  RH  067%=      5-min Rain = 0
KAM2 221953Z 18006KT 08/03 A2985 RMK A01 T00830026  RH  067%=      5-min Rain = 0
KAM2 221954Z 18006KT 09/03 A2985 RMK A01 T00850027  RH  067%=      5-min Rain = 0
KAM2 221955Z 17006KT 09/03 A2985 RMK A01 T00880029  RH  067%=      5-min Rain = 0
KAM2 221956Z 18011KT 09/03 A2985 RMK A01 T00900027  RH  065%=      5-min Rain = 0
KAM2 221957Z 18012KT 09/03 A2985 RMK A01 T00870025  RH  065%=      5-min Rain = 0
KAM2 221958Z 16011KT 08/02 A2985 RMK A01 T00840024  RH  066%=      5-min Rain = 0
KAM2 221959Z 17010KT 08/02 A2985 RMK A01 T00820024  RH  067%=      5-min Rain = 0
KAM2 222000Z 16009KT 08/02 A2985 RMK A01 T00810024  RH  067%=      5-min Rain = 0
KAM2 222001Z 16012KT 08/03 A2985 RMK A01 T00800025  RH  068%=      5-min Rain = 0
KAM2 222002Z 15012KT 08/03 A2984 RMK A01 T00830027  RH  068%=      5-min Rain = 0
KAM2 222003Z 14013KT 09/03 A2984 RMK A01 T00860026  RH  066%=      5-min Rain = 0
KAM2 222004Z 14011KT 09/03 A2984 RMK A01 T00860026  RH  066%=      5-min Rain = 0
KAM2 222005Z 15009KT 09/03 A2984 RMK A01 T00860026  RH  066%=      5-min Rain = 0
KAM2 222006Z 14007KT 09/03 A2984 RMK A01 T00860026  RH  066%=      5-min Rain = 0
KAM2 222007Z 15010G16KT 09/03 A2984 RMK A01 T00860026  RH  066%=      5-min Rain = 0
KAM2 222008Z 16014KT 09/03 A2984 RMK A01 T00860026  RH  066%=      5-min Rain = 0
KAM2 222009Z 16011KT 09/03 A2984 RMK A01 T00860025  RH  065%=      5-min Rain = 0
KAM2 222010Z 16007KT 09/03 A2984 RMK A01 T00870027  RH  066%=      5-min Rain = 0
KAM2 222011Z 15010KT 09/03 A2984 RMK A01 T00890027  RH  065%=      5-min Rain = 0
KAM2 222012Z 15008KT 09/03 A2984 RMK A01 T00910027  RH  064%=      5-min Rain = 0
KAM2 222013Z 16010G15KT 09/03 A2984 RMK A01 T00910027  RH  064%=      5-min Rain = 0
KAM2 222014Z 18011KT 09/03 A2984 RMK A01 T00930028  RH  064%=      5-min Rain = 0
KAM2 222015Z 18009KT 09/03 A2984 RMK A01 T00930028  RH  063%=      5-min Rain = 0
KAM2 222016Z 16007KT 09/03 A2984 RMK A01 T00940028  RH  063%=      5-min Rain = 0
KAM2 222017Z 17008KT 10/03 A2983 RMK A01 T00980029  RH  062%=      5-min Rain = 0
KAM2 222018Z 16007KT 09/03 A2983 RMK A01 T00940025  RH  062%=      5-min Rain = 0
KAM2 222019Z 15008KT 09/03 A2983 RMK A01 T00930027  RH  063%=      5-min Rain = 0
KAM2 222020Z 17010KT 09/03 A2983 RMK A01 T00940028  RH  063%=      5-min Rain = 0
KAM2 222021Z 15011KT 10/03 A2983 RMK A01 T00950028  RH  063%=      5-min Rain = 0
KAM2 222022Z 16011KT 10/03 A2983 RMK A01 T00970027  RH  062%=      5-min Rain = 0
KAM2 222023Z 15012KT 10/03 A2983 RMK A01 T00960028  RH  062%=      5-min Rain = 0
KAM2 222024Z 14009KT 10/03 A2983 RMK A01 T00960027  RH  062%=      5-min Rain = 0
KAM2 222025Z 14010KT 10/03 A2983 RMK A01 T00960028  RH  063%=      5-min Rain = 0
KAM2 222026Z 13009KT 10/03 A2983 RMK A01 T00960028  RH  062%=      5-min Rain = 0
KAM2 222027Z 13008KT 10/03 A2983 RMK A01 T00960027  RH  062%=      5-min Rain = 0
KAM2 222028Z 15008KT 10/03 A2983 RMK A01 T00950027  RH  062%=      5-min Rain = 0
KAM2 222029Z 18009KT 10/03 A2982 RMK A01 T00970028  RH  062%=      5-min Rain = 0
KAM2 222030Z 18011KT 10/03 A2982 RMK A01 T00980028  RH  062%=      5-min Rain = 0
KAM2 222031Z 16012KT 10/03 A2982 RMK A01 T00980027  RH  061%=      5-min Rain = 0
KAM2 222032Z 18010KT 10/03 A2983 RMK A01 T00970026  RH  061%=      5-min Rain = 0
KAM2 222033Z 16009KT 10/03 A2983 RMK A01 T00970026  RH  061%=      5-min Rain = 0
KAM2 222034Z 15008KT 10/03 A2983 RMK A01 T00980027  RH  061%=      5-min Rain = 0
KAM2 222035Z 16011KT 10/03 A2982 RMK A01 T00980027  RH  061%=      5-min Rain = 0
KAM2 222036Z 16010KT 10/03 A2982 RMK A01 T01010029  RH  061%=      5-min Rain = 0
KAM2 222037Z 17009KT 10/03 A2982 RMK A01 T01030028  RH  060%=      5-min Rain = 0
KAM2 222038Z 16009KT 10/03 A2982 RMK A01 T01020027  RH  059%=      5-min Rain = 0
KAM2 222039Z 15009KT 10/03 A2982 RMK A01 T01020027  RH  060%=      5-min Rain = 0
KAM2 222040Z 15009KT 10/03 A2982 RMK A01 T01020027  RH  060%=      5-min Rain = 0
KAM2 222041Z 16009KT 10/03 A2982 RMK A01 T01010027  RH  060%=      5-min Rain = 0
KAM2 222042Z 15013KT 10/03 A2982 RMK A01 T01010028  RH  060%=      5-min Rain = 0
KAM2 222043Z 18009KT 10/03 A2982 RMK A01 T01020028  RH  060%=      5-min Rain = 0
KAM2 222044Z 17012KT 11/03 A2982 RMK A01 T01050029  RH  059%=      5-min Rain = 0
KAM2 222045Z 19011KT 11/03 A2982 RMK A01 T01050028  RH  059%=      5-min Rain = 0
KAM2 222046Z 19011KT 11/03 A2982 RMK A01 T01050027  RH  058%=      5-min Rain = 0
KAM2 222047Z 18008KT 11/03 A2982 RMK A01 T01050025  RH  058%=      5-min Rain = 0
KAM2 222048Z 16008KT 10/03 A2982 RMK A01 T01020026  RH  059%=      5-min Rain = 0
KAM2 222049Z 16009KT 10/03 A2982 RMK A01 T01040027  RH  059%=      5-min Rain = 0
KAM2 222050Z 16010KT 11/03 A2982 RMK A01 T01050028  RH  059%=      5-min Rain = 0
KAM2 222051Z 14010KT 11/03 A2982 RMK A01 T01060028  RH  058%=      5-min Rain = 0
KAM2 222052Z 15010KT 11/03 A2982 RMK A01 T01070028  RH  058%=      5-min Rain = 0
KAM2 222053Z 17009KT 11/03 A2982 RMK A01 T01090028  RH  057%=      5-min Rain = 0
KAM2 222054Z 17009KT 11/03 A2982 RMK A01 T01070028  RH  058%=      5-min Rain = 0
KAM2 222055Z 16011KT 11/03 A2981 RMK A01 T01090028  RH  057%=      5-min Rain = 0
KAM2 222056Z 18008KT 11/03 A2981 RMK A01 T01080027  RH  057%=      5-min Rain = 0
KAM2 222057Z 18007KT 11/03 A2981 RMK A01 T01060028  RH  058%=      5-min Rain = 0
KAM2 222058Z 15006KT 11/03 A2981 RMK A01 T01070029  RH  058%=      5-min Rain = 0
KAM2 222059Z 15009KT 11/03 A2981 RMK A01 T01100029  RH  058%=      5-min Rain = 0
KAM2 222100Z 16011KT 11/03 A2981 RMK A01 T01120029  RH  056%=      5-min Rain = 0
KAM2 222101Z 15010KT 11/03 A2981 RMK A01 T01110027  RH  056%=      5-min Rain = 0
KAM2 222102Z 17009KT 11/03 A2981 RMK A01 T01090026  RH  057%=      5-min Rain = 0
KAM2 222103Z 17008KT 11/03 A2981 RMK A01 T01090026  RH  057%=      5-min Rain = 0
KAM2 222104Z 15007KT 11/03 A2981 RMK A01 T01070026  RH  057%=      5-min Rain = 0
KAM2 222105Z 16011KT 11/03 A2981 RMK A01 T01070027  RH  058%=      5-min Rain = 0
KAM2 222106Z 16010KT 11/03 A2981 RMK A01 T01100029  RH  057%=      5-min Rain = 0
KAM2 222107Z 14010KT 11/03 A2981 RMK A01 T01120029  RH  057%=      5-min Rain = 0
KAM2 222108Z 14011KT 12/03 A298 RMK A01 T01150030  RH  056%=      5-min Rain = 0
KAM2 222109Z 14011KT 12/03 A298 RMK A01 T01150030  RH  056%=      5-min Rain = 0
KAM2 222110Z 14008KT 12/03 A298 RMK A01 T01150030  RH  056%=      5-min Rain = 0
KAM2 222111Z 14009KT 12/03 A298 RMK A01 T01170031  RH  055%=      5-min Rain = 0
KAM2 222112Z 14008KT 12/03 A298 RMK A01 T01180029  RH  055%=      5-min Rain = 0
KAM2 222113Z 14009KT 12/03 A298 RMK A01 T01160029  RH  055%=      5-min Rain = 0
KAM2 222114Z 14010KT 12/03 A298 RMK A01 T01170030  RH  055%=      5-min Rain = 0
KAM2 222115Z 15011KT 12/03 A298 RMK A01 T01200031  RH  054%=      5-min Rain = 0
KAM2 222116Z 13010KT 12/03 A298 RMK A01 T01200030  RH  054%=      5-min Rain = 0
KAM2 222117Z 14009KT 12/03 A298 RMK A01 T01190030  RH  054%=      5-min Rain = 0
KAM2 222118Z 14009KT 12/03 A298 RMK A01 T01190031  RH  054%=      5-min Rain = 0
KAM2 222119Z 14010KT 12/03 A298 RMK A01 T01210031  RH  054%=      5-min Rain = 0
KAM2 222120Z 15007KT 12/03 A298 RMK A01 T01210030  RH  053%=      5-min Rain = 0
KAM2 222121Z 16006KT 12/03 A298 RMK A01 T01220030  RH  053%=      5-min Rain = 0
KAM2 222122Z 17005KT 12/03 A298 RMK A01 T01240031  RH  053%=      5-min Rain = 0
KAM2 222123Z 17005KT 12/03 A298 RMK A01 T01240030  RH  053%=      5-min Rain = 0
KAM2 222124Z 16011KT 13/03 A298 RMK A01 T01250030  RH  052%=      5-min Rain = 0
KAM2 222125Z 18009KT 12/03 A298 RMK A01 T01240028  RH  052%=      5-min Rain = 0
KAM2 222126Z 16008KT 12/03 A298 RMK A01 T01220029  RH  053%=      5-min Rain = 0
KAM2 222127Z 16011KT 12/03 A298 RMK A01 T01220028  RH  053%=      5-min Rain = 0
KAM2 222128Z 16012KT 12/03 A298 RMK A01 T01220028  RH  053%=      5-min Rain = 0
KAM2 222129Z 16011KT 12/03 A298 RMK A01 T01220028  RH  053%=      5-min Rain = 0
KAM2 222130Z 16008KT 12/03 A298 RMK A01 T01210028  RH  053%=      5-min Rain = 0
KAM2 222131Z 16008KT 12/03 A298 RMK A01 T01230029  RH  053%=      5-min Rain = 0
KAM2 222132Z 16011KT 13/03 A2979 RMK A01 T01260029  RH  052%=      5-min Rain = 0
KAM2 222133Z 16011KT 13/03 A2979 RMK A01 T01280028  RH  051%=      5-min Rain = 0
KAM2 222134Z 13010G15KT 13/03 A2979 RMK A01 T01280029  RH  051%=      5-min Rain = 0
KAM2 222135Z 13010KT 13/03 A2979 RMK A01 T01260031  RH  052%=      5-min Rain = 0
KAM2 222136Z 13014KT 13/03 A2979 RMK A01 T01250030  RH  052%=      5-min Rain = 0
KAM2 222137Z 14013KT 12/03 A2979 RMK A01 T01240028  RH  052%=      5-min Rain = 0
KAM2 222138Z 16009KT 13/03 A2979 RMK A01 T01250029  RH  052%=      5-min Rain = 0
KAM2 222139Z 14008KT 13/03 A2979 RMK A01 T01260030  RH  052%=      5-min Rain = 0
KAM2 222140Z 16013KT 13/03 A2979 RMK A01 T01270031  RH  052%=      5-min Rain = 0
KAM2 222141Z 16015KT 13/03 A2979 RMK A01 T01270029  RH  051%=      5-min Rain = 0
KAM2 222142Z 15012KT 12/03 A2979 RMK A01 T01240028  RH  052%=      5-min Rain = 0
KAM2 222143Z 14010KT 12/03 A2979 RMK A01 T01220028  RH  053%=      5-min Rain = 0
KAM2 222144Z 15012KT 12/03 A2979 RMK A01 T01220029  RH  053%=      5-min Rain = 0
KAM2 222145Z 15011KT 12/03 A2979 RMK A01 T01230029  RH  053%=      5-min Rain = 0
KAM2 222146Z 15011KT 12/03 A2979 RMK A01 T01230030  RH  053%=      5-min Rain = 0
KAM2 222147Z 14011KT 12/03 A2979 RMK A01 T01230031  RH  053%=      5-min Rain = 0
KAM2 222148Z 16010G15KT 13/03 A2979 RMK A01 T01250032  RH  053%=      5-min Rain = 0
KAM2 222149Z 16013KT 13/03 A2979 RMK A01 T01270032  RH  052%=      5-min Rain = 0
KAM2 222150Z 14013KT 13/03 A2979 RMK A01 T01270031  RH  052%=      5-min Rain = 0
KAM2 222151Z 15013KT 13/03 A2979 RMK A01 T01250029  RH  052%=      5-min Rain = 0
KAM2 222152Z 13009KT 12/03 A2979 RMK A01 T01210029  RH  053%=      5-min Rain = 0
KAM2 222153Z 13011KT 12/03 A2979 RMK A01 T01220030  RH  053%=      5-min Rain = 0
KAM2 222154Z 13012KT 12/03 A2979 RMK A01 T01230030  RH  053%=      5-min Rain = 0
KAM2 222155Z 13011KT 12/03 A2979 RMK A01 T01210031  RH  054%=      5-min Rain = 0
KAM2 222156Z 15010KT 12/03 A2979 RMK A01 T01210031  RH  054%=      5-min Rain = 0
KAM2 222157Z 16010KT 12/03 A2979 RMK A01 T01240032  RH  054%=      5-min Rain = 0
KAM2 222158Z 16013KT 13/03 A2979 RMK A01 T01270031  RH  052%=      5-min Rain = 0
KAM2 222159Z 14011G16KT 13/03 A2979 RMK A01 T01250029  RH  052%=      5-min Rain = 0
KAM2 222200Z 14014KT 12/03 A2979 RMK A01 T01240029  RH  053%=      5-min Rain = 0
KAM2 222201Z 15009KT 12/03 A2979 RMK A01 T01220029  RH  053%=      5-min Rain = 0
KAM2 222202Z 16013KT 13/03 A2979 RMK A01 T01250029  RH  052%=      5-min Rain = 0
KAM2 222203Z 16013KT 13/03 A2979 RMK A01 T01250028  RH  052%=      5-min Rain = 0
KAM2 222204Z 17014KT 13/03 A2979 RMK A01 T01250029  RH  052%=      5-min Rain = 0
KAM2 222205Z 16009KT 12/03 A2979 RMK A01 T01240028  RH  052%=      5-min Rain = 0
KAM2 222206Z 15011KT 13/03 A2979 RMK A01 T01260030  RH  052%=      5-min Rain = 0
KAM2 222207Z 15010KT 13/03 A2979 RMK A01 T01260030  RH  052%=      5-min Rain = 0
KAM2 222208Z 15011G18KT 13/03 A2979 RMK A01 T01250030  RH  052%=      5-min Rain = 0
KAM2 222209Z 15016KT 13/03 A2978 RMK A01 T01260027  RH  051%=      5-min Rain = 0
KAM2 222210Z 16014KT 13/03 A2978 RMK A01 T01260026  RH  051%=      5-min Rain = 0
KAM2 222211Z 16010KT 13/03 A2978 RMK A01 T01260025  RH  050%=      5-min Rain = 0
KAM2 222212Z 16011KT 13/03 A2978 RMK A01 T01300027  RH  049%=      5-min Rain = 0
KAM2 222213Z 16013KT 13/03 A2978 RMK A01 T01310027  RH  049%=      5-min Rain = 0
KAM2 222214Z 16012KT 13/03 A2978 RMK A01 T01280026  RH  050%=      5-min Rain = 0
KAM2 222215Z 16014KT 13/03 A2978 RMK A01 T01280026  RH  050%=      5-min Rain = 0
KAM2 222216Z 16013KT 13/03 A2978 RMK A01 T01280025  RH  049%=      5-min Rain = 0
KAM2 222217Z 16011KT 13/02 A2978 RMK A01 T01270024  RH  049%=      5-min Rain = 0
KAM2 222218Z 16010KT 13/02 A2978 RMK A01 T01270024  RH  049%=      5-min Rain = 0
KAM2 222219Z 16010KT 13/02 A2978 RMK A01 T01290024  RH  049%=      5-min Rain = 0
KAM2 222220Z 15010KT 13/02 A2978 RMK A01 T01330024  RH  048%=      5-min Rain = 0
KAM2 222221Z 14012KT 13/02 A2978 RMK A01 T01340020  RH  046%=      5-min Rain = 0
KAM2 222222Z 15009KT 13/02 A2978 RMK A01 T01320019  RH  046%=      5-min Rain = 0
KAM2 222223Z 16013KT 13/02 A2978 RMK A01 T01320021  RH  047%=      5-min Rain = 0
KAM2 222224Z 15011KT 13/02 A2978 RMK A01 T01300023  RH  048%=      5-min Rain = 0
KAM2 222225Z 15009KT 13/02 A2978 RMK A01 T01290024  RH  049%=      5-min Rain = 0
KAM2 222226Z 17011KT 13/02 A2978 RMK A01 T01320024  RH  048%=      5-min Rain = 0
KAM2 222227Z 18012KT 13/02 A2978 RMK A01 T01330022  RH  047%=      5-min Rain = 0
KAM2 222228Z 17010KT 13/02 A2978 RMK A01 T01330021  RH  047%=      5-min Rain = 0
KAM2 222229Z 16013KT 13/02 A2978 RMK A01 T01330021  RH  047%=      5-min Rain = 0
KAM2 222230Z 16011KT 13/02 A2978 RMK A01 T01330018  RH  046%=      5-min Rain = 0
KAM2 222231Z 16012KT 13/02 A2978 RMK A01 T01330017  RH  045%=      5-min Rain = 0
KAM2 222232Z 17013KT 13/02 A2977 RMK A01 T01340016  RH  045%=      5-min Rain = 0
KAM2 222233Z 17015KT 13/01 A2977 RMK A01 T01330011  RH  043%=      5-min Rain = 0
KAM2 222234Z 16013KT 13/01 A2977 RMK A01 T01320012  RH  044%=      5-min Rain = 0
KAM2 222235Z 15011KT 13/01 A2977 RMK A01 T01310012  RH  044%=      5-min Rain = 0
KAM2 222236Z 17012KT 13/01 A2977 RMK A01 T01310013  RH  044%=      5-min Rain = 0
KAM2 222237Z 15012KT 13/01 A2977 RMK A01 T01320012  RH  044%=      5-min Rain = 0
KAM2 222238Z 16010KT 13/01 A2977 RMK A01 T01320014  RH  045%=      5-min Rain = 0
KAM2 222239Z 16011KT 13/02 A2977 RMK A01 T01320016  RH  045%=      5-min Rain = 0
KAM2 222240Z 17014KT 13/02 A2977 RMK A01 T01320019  RH  046%=      5-min Rain = 0
KAM2 222241Z 17013KT 13/02 A2977 RMK A01 T01320019  RH  046%=      5-min Rain = 0
KAM2 222242Z 15010KT 13/02 A2977 RMK A01 T01310020  RH  047%=      5-min Rain = 0
KAM2 222243Z 15012KT 13/02 A2978 RMK A01 T01330021  RH  047%=      5-min Rain = 0
KAM2 222244Z 14014G19KT 13/02 A2977 RMK A01 T01340022  RH  047%=      5-min Rain = 0
KAM2 222245Z 14014KT 13/02 A2978 RMK A01 T01320022  RH  047%=      5-min Rain = 0
KAM2 222246Z 14012KT 13/02 A2978 RMK A01 T01300022  RH  048%=      5-min Rain = 0
KAM2 222247Z 13012KT 13/02 A2978 RMK A01 T01300023  RH  048%=      5-min Rain = 0
KAM2 222248Z 14012KT 13/03 A2978 RMK A01 T01300025  RH  049%=      5-min Rain = 0
KAM2 222249Z 13016KT 13/03 A2978 RMK A01 T01290026  RH  050%=      5-min Rain = 0
KAM2 222250Z 14015KT 13/03 A2978 RMK A01 T01280027  RH  050%=      5-min Rain = 0
KAM2 222251Z 14013KT 13/03 A2978 RMK A01 T01280028  RH  051%=      5-min Rain = 0
KAM2 222252Z 15012KT 13/03 A2978 RMK A01 T01270027  RH  051%=      5-min Rain = 0
KAM2 222253Z 13012KT 13/03 A2978 RMK A01 T01270028  RH  051%=      5-min Rain = 0
KAM2 222254Z 13012KT 13/03 A2978 RMK A01 T01280026  RH  050%=      5-min Rain = 0
KAM2 222255Z 16015KT 13/02 A2978 RMK A01 T01270024  RH  050%=      5-min Rain = 0
KAM2 222256Z 15014KT 13/02 A2978 RMK A01 T01270024  RH  050%=      5-min Rain = 0
KAM2 222257Z 14012G17KT 13/03 A2978 RMK A01 T01260026  RH  050%=      5-min Rain = 0
KAM2 222258Z 15016KT 13/03 A2978 RMK A01 T01260027  RH  051%=      5-min Rain = 0
KAM2 222259Z 14014KT 12/03 A2978 RMK A01 T01240027  RH  051%=      5-min Rain = 0
KAM2 222300Z 15012G18KT 12/03 A2978 RMK A01 T01240027  RH  052%=      5-min Rain = 0
KAM2 222301Z 14013KT 12/03 A2978 RMK A01 T01240027  RH  051%=      5-min Rain = 0
KAM2 222302Z 13013KT 12/03 A2978 RMK A01 T01240027  RH  052%=      5-min Rain = 0
KAM2 222303Z 13014KT 12/03 A2978 RMK A01 T01240027  RH  052%=      5-min Rain = 0
KAM2 222304Z 14013G18KT 12/03 A2978 RMK A01 T01230026  RH  051%=      5-min Rain = 0
KAM2 222305Z 14017KT 12/03 A2978 RMK A01 T01230026  RH  052%=      5-min Rain = 0
KAM2 222306Z 13015KT 12/03 A2978 RMK A01 T01220026  RH  052%=      5-min Rain = 0
KAM2 222307Z 13014KT 12/03 A2978 RMK A01 T01210025  RH  052%=      5-min Rain = 0
KAM2 222308Z 14012KT 12/03 A2978 RMK A01 T01210025  RH  052%=      5-min Rain = 0
KAM2 222309Z 13013KT 12/03 A2978 RMK A01 T01220025  RH  051%=      5-min Rain = 0
KAM2 222310Z 14014KT 12/03 A2978 RMK A01 T01230025  RH  051%=      5-min Rain = 0
KAM2 222311Z 14016KT 12/02 A2978 RMK A01 T01230024  RH  051%=      5-min Rain = 0
KAM2 222312Z 14014KT 12/02 A2978 RMK A01 T01220024  RH  051%=      5-min Rain = 0
KAM2 222313Z 15013KT 12/02 A2978 RMK A01 T01220024  RH  051%=      5-min Rain = 0
KAM2 222314Z 14014KT 12/02 A2978 RMK A01 T01220024  RH  051%=      5-min Rain = 0
KAM2 222315Z 14015KT 12/02 A2978 RMK A01 T01210023  RH  051%=      5-min Rain = 0
KAM2 222316Z 14014KT 12/02 A2978 RMK A01 T01200023  RH  051%=      5-min Rain = 0
KAM2 222317Z 14015KT 12/02 A2978 RMK A01 T01200023  RH  051%=      5-min Rain = 0
KAM2 222318Z 14015KT 12/02 A2978 RMK A01 T01200023  RH  052%=      5-min Rain = 0
KAM2 222319Z 14016KT 12/02 A2977 RMK A01 T01180024  RH  052%=      5-min Rain = 0
KAM2 222320Z 14015KT 12/02 A2977 RMK A01 T01180024  RH  053%=      5-min Rain = 0
KAM2 222321Z 15012KT 12/02 A2977 RMK A01 T01170024  RH  053%=      5-min Rain = 0
KAM2 222322Z 14015KT 12/02 A2977 RMK A01 T01170023  RH  052%=      5-min Rain = 0
KAM2 222323Z 15016KT 12/02 A2977 RMK A01 T01180024  RH  053%=      5-min Rain = 0
KAM2 222324Z 14013KT 12/03 A2977 RMK A01 T01170026  RH  054%=      5-min Rain = 0
KAM2 222325Z 13016G21KT 12/03 A2977 RMK A01 T01160031  RH  056%=      5-min Rain = 0
KAM2 222326Z 13013KT 11/03 A2977 RMK A01 T01120032  RH  058%=      5-min Rain = 0
KAM2 222327Z 13014KT 11/03 A2977 RMK A01 T01100033  RH  059%=      5-min Rain = 0
KAM2 222328Z 13017KT 11/03 A2977 RMK A01 T01080033  RH  060%=      5-min Rain = 0
KAM2 222329Z 13014KT 11/03 A2977 RMK A01 T01050033  RH  061%=      5-min Rain = 0
KAM2 222330Z 12014G20KT 10/03 A2977 RMK A01 T01040033  RH  062%=      5-min Rain = 0
KAM2 222331Z 13015KT 10/03 A2977 RMK A01 T01020033  RH  062%=      5-min Rain = 0
KAM2 222332Z 13016KT 10/03 A2977 RMK A01 T01000033  RH  063%=      5-min Rain = 0
KAM2 222333Z 13016KT 10/03 A2977 RMK A01 T00980033  RH  064%=      5-min Rain = 0
KAM2 222334Z 13015G20KT 10/03 A2977 RMK A01 T00960032  RH  064%=      5-min Rain = 0
KAM2 222335Z 13013KT 10/03 A2977 RMK A01 T00950032  RH  065%=      5-min Rain = 0
KAM2 222336Z 13020KT 10/03 A2977 RMK A01 T00950032  RH  065%=      5-min Rain = 0
KAM2 222337Z 13019KT 09/03 A2977 RMK A01 T00930032  RH  066%=      5-min Rain = 0
KAM2 222338Z 13016KT 09/03 A2977 RMK A01 T00920032  RH  066%=      5-min Rain = 0
KAM2 222339Z 13016KT 09/03 A2977 RMK A01 T00910032  RH  066%=      5-min Rain = 0
KAM2 222340Z 13016G22KT 09/03 A2978 RMK A01 T00900031  RH  067%=      5-min Rain = 0
KAM2 222341Z 14019KT 09/03 A2977 RMK A01 T00890031  RH  067%=      5-min Rain = 0
KAM2 222342Z 13016KT 09/03 A2978 RMK A01 T00880031  RH  068%=      5-min Rain = 0
KAM2 222343Z 13015G20KT 09/03 A2978 RMK A01 T00870032  RH  068%=      5-min Rain = 0
KAM2 222344Z 14015KT 09/03 A2978 RMK A01 T00860031  RH  068%=      5-min Rain = 0
KAM2 222345Z 14017KT 09/03 A2978 RMK A01 T00860031  RH  068%=      5-min Rain = 0
KAM2 222346Z 13016KT 08/03 A2978 RMK A01 T00840031  RH  069%=      5-min Rain = 0
KAM2 222347Z 13017KT 08/03 A2978 RMK A01 T00830031  RH  070%=      5-min Rain = 0
KAM2 222348Z 12014KT 08/03 A2978 RMK A01 T00820032  RH  070%=      5-min Rain = 0
KAM2 222349Z 12016KT 08/03 A2978 RMK A01 T00810031  RH  071%=      5-min Rain = 0
KAM2 222350Z 13014KT 08/03 A2978 RMK A01 T00790032  RH  072%=      5-min Rain = 0
KAM2 222351Z 13014G19KT 08/03 A2978 RMK A01 T00790032  RH  072%=      5-min Rain = 0
KAM2 222352Z 13018KT 08/03 A2978 RMK A01 T00790031  RH  072%=      5-min Rain = 0
KAM2 222353Z 13014KT 08/03 A2978 RMK A01 T00770031  RH  073%=      5-min Rain = 0
KAM2 222354Z 13017KT 08/03 A2978 RMK A01 T00760031  RH  073%=      5-min Rain = 0
KAM2 222355Z 13018KT 08/03 A2978 RMK A01 T00750031  RH  073%=      5-min Rain = 0
KAM2 222356Z 12017KT 07/03 A2978 RMK A01 T00740031  RH  074%=      5-min Rain = 0
KAM2 222357Z 12017KT 07/03 A2978 RMK A01 T00730031  RH  075%=      5-min Rain = 0
KAM2 222358Z 12018KT 07/03 A2978 RMK A01 T00720031  RH  075%=      5-min Rain = 0
KAM2 222359Z 13015KT 07/03 A2978 RMK A01 T00710031  RH  075%=      5-min Rain = 0
KAM2 230000Z 14015KT 07/03 A2978 RMK A01 T00710030  RH  076%=      5-min Rain = 0
KAM2 230001Z 14016KT 07/03 A2978 RMK A01 T00700031  RH  076%=      5-min Rain = 0
KAM2 230002Z 13017KT 07/03 A2978 RMK A01 T00710031  RH  076%=      5-min Rain = 0
KAM2 230003Z 13016KT 07/03 A2978 RMK A01 T00700031  RH  076%=      5-min Rain = 0
KAM2 230004Z 13013KT 07/03 A2978 RMK A01 T00700031  RH  077%=      5-min Rain = 0
KAM2 230005Z 13016KT 07/03 A2978 RMK A01 T00690031  RH  077%=      5-min Rain = 0
KAM2 230006Z 13015KT 07/03 A2979 RMK A01 T00690031  RH  077%=      5-min Rain = 0
KAM2 230007Z 13013KT 07/03 A2979 RMK A01 T00680031  RH  077%=      5-min Rain = 0
KAM2 230008Z 13014KT 07/03 A2979 RMK A01 T00680031  RH  077%=      5-min Rain = 0
KAM2 230009Z 13014KT 07/03 A2979 RMK A01 T00670031  RH  077%=      5-min Rain = 0
KAM2 230010Z 13012KT 07/03 A2979 RMK A01 T00670031  RH  077%=      5-min Rain = 0
KAM2 230011Z 13010KT 07/03 A2979 RMK A01 T00670030  RH  077%=      5-min Rain = 0
KAM2 230012Z 14015KT 07/03 A2979 RMK A01 T00660030  RH  078%=      5-min Rain = 0
KAM2 230013Z 13014KT 07/03 A2979 RMK A01 T00660030  RH  078%=      5-min Rain = 0
KAM2 230014Z 13012KT 07/03 A2979 RMK A01 T00660030  RH  078%=      5-min Rain = 0
KAM2 230015Z 13012KT 07/03 A2979 RMK A01 T00650030  RH  078%=      5-min Rain = 0
KAM2 230016Z 14015G20KT 07/03 A2979 RMK A01 T00650030  RH  078%=      5-min Rain = 0
KAM2 230017Z 13017KT 07/03 A2979 RMK A01 T00650030  RH  079%=      5-min Rain = 0
KAM2 230018Z 13014KT 06/03 A2979 RMK A01 T00640030  RH  079%=      5-min Rain = 0
KAM2 230019Z 13016KT 06/03 A2979 RMK A01 T00640030  RH  079%=      5-min Rain = 0
KAM2 230020Z 13015KT 06/03 A2979 RMK A01 T00630030  RH  079%=      5-min Rain = 0
KAM2 230021Z 13013KT 06/03 A2979 RMK A01 T00630030  RH  080%=      5-min Rain = 0
KAM2 230022Z 13015KT 06/03 A2979 RMK A01 T00620030  RH  080%=      5-min Rain = 0
KAM2 230023Z 13013KT 06/03 A2979 RMK A01 T00610030  RH  080%=      5-min Rain = 0
KAM2 230024Z 14014KT 06/03 A2979 RMK A01 T00610030  RH  081%=      5-min Rain = 0
KAM2 230025Z 14016KT 06/03 A2979 RMK A01 T00600030  RH  081%=      5-min Rain = 0
KAM2 230026Z 14018KT 06/03 A2979 RMK A01 T00600030  RH  081%=      5-min Rain = 0
KAM2 230027Z 14017KT 06/03 A2979 RMK A01 T00590030  RH  082%=      5-min Rain = 0
KAM2 230028Z 14013KT 06/03 A2979 RMK A01 T00590030  RH  082%=      5-min Rain = 0
KAM2 230029Z 14015KT 06/03 A2979 RMK A01 T00580029  RH  082%=      5-min Rain = 0
KAM2 230030Z 14014KT 06/03 A2979 RMK A01 T00580029  RH  082%=      5-min Rain = 0
KAM2 230031Z 14015G20KT 06/03 A2979 RMK A01 T00570030  RH  082%=      5-min Rain = 0
KAM2 230032Z 13017G22KT 06/03 A2979 RMK A01 T00570030  RH  083%=      5-min Rain = 0
KAM2 230033Z 13017G22KT 06/03 A2979 RMK A01 T00570030  RH  083%=      5-min Rain = 0
KAM2 230034Z 13018KT 06/03 A2979 RMK A01 T00570031  RH  083%=      5-min Rain = 0
KAM2 230035Z 14016KT 06/03 A2979 RMK A01 T00560031  RH  083%=      5-min Rain = 0
KAM2 230036Z 14013KT 06/03 A2979 RMK A01 T00560031  RH  084%=      5-min Rain = 0
KAM2 230037Z 14015G21KT 06/03 A2979 RMK A01 T00560030  RH  084%=      5-min Rain = 0
KAM2 230038Z 14014KT 06/03 A2979 RMK A01 T00550030  RH  084%=      5-min Rain = 0
KAM2 230039Z 14010G15KT 06/03 A2979 RMK A01 T00550030  RH  084%=      5-min Rain = 0
KAM2 230040Z 14014KT 06/03 A2979 RMK A01 T00550030  RH  084%=      5-min Rain = 0
KAM2 230041Z 14015KT 05/03 A2979 RMK A01 T00540030  RH  084%=      5-min Rain = 0
KAM2 230042Z 14016KT 05/03 A2979 RMK A01 T00540030  RH  085%=      5-min Rain = 0
KAM2 230043Z 14015KT 05/03 A298 RMK A01 T00540031  RH  085%=      5-min Rain = 0
KAM2 230044Z 14015KT 05/03 A298 RMK A01 T00540031  RH  085%=      5-min Rain = 0
KAM2 230045Z 14012KT 05/03 A298 RMK A01 T00540031  RH  085%=      5-min Rain = 0
KAM2 230046Z 14010KT 05/03 A298 RMK A01 T00540031  RH  085%=      5-min Rain = 0
KAM2 230047Z 14013KT 05/03 A298 RMK A01 T00530030  RH  085%=      5-min Rain = 0
KAM2 230048Z 14011G16KT 05/03 A298 RMK A01 T00530030  RH  085%=      5-min Rain = 0
KAM2 230049Z 15010KT 05/03 A298 RMK A01 T00530030  RH  085%=      5-min Rain = 0
KAM2 230050Z 15011KT 05/03 A298 RMK A01 T00530030  RH  085%=      5-min Rain = 0
KAM2 230051Z 14009G14KT 05/03 A298 RMK A01 T00530031  RH  086%=      5-min Rain = 0
KAM2 230052Z 14013KT 05/03 A2981 RMK A01 T00530031  RH  086%=      5-min Rain = 0
KAM2 230053Z 14014KT 05/03 A298 RMK A01 T00530031  RH  086%=      5-min Rain = 0
KAM2 230054Z 14015KT 05/03 A2981 RMK A01 T00540031  RH  086%=      5-min Rain = 0
KAM2 230055Z 14013KT 05/03 A298 RMK A01 T00530031  RH  086%=      5-min Rain = 0
KAM2 230056Z 15012KT 05/03 A298 RMK A01 T00540032  RH  086%=      5-min Rain = 0
KAM2 230057Z 14012KT 05/03 A298 RMK A01 T00540032  RH  086%=      5-min Rain = 0
KAM2 230058Z 14013G18KT 05/03 A298 RMK A01 T00540031  RH  085%=      5-min Rain = 0
KAM2 230059Z 14011KT 05/03 A298 RMK A01 T00540031  RH  085%=      5-min Rain = 0
KAM2 230100Z 13012KT 05/03 A298 RMK A01 T00540031  RH  085%=      5-min Rain = 0
KAM2 230101Z 14012KT 05/03 A298 RMK A01 T00540031  RH  085%=      5-min Rain = 0
KAM2 230102Z 14011KT 05/03 A298 RMK A01 T00540031  RH  085%=      5-min Rain = 0
KAM2 230103Z 14012G17KT 05/03 A298 RMK A01 T00530031  RH  085%=      5-min Rain = 0
KAM2 230104Z 14016KT 05/03 A298 RMK A01 T00530030  RH  085%=      5-min Rain = 0
KAM2 230105Z 14015KT 05/03 A298 RMK A01 T00530031  RH  085%=      5-min Rain = 0
KAM2 230106Z 14014KT 05/03 A298 RMK A01 T00530031  RH  085%=      5-min Rain = 0
KAM2 230107Z 14013KT 05/03 A298 RMK A01 T00530031  RH  085%=      5-min Rain = 0
KAM2 230108Z 14012KT 05/03 A298 RMK A01 T00530030  RH  085%=      5-min Rain = 0
KAM2 230109Z 14011KT 05/03 A298 RMK A01 T00530030  RH  085%=      5-min Rain = 0
KAM2 230110Z 15012KT 05/03 A298 RMK A01 T00530030  RH  085%=      5-min Rain = 0
KAM2 230111Z 15013KT 05/03 A298 RMK A01 T00530030  RH  085%=      5-min Rain = 0
KAM2 230112Z 16012KT 05/03 A298 RMK A01 T00530030  RH  085%=      5-min Rain = 0
KAM2 230113Z 16010KT 05/03 A298 RMK A01 T00530030  RH  085%=      5-min Rain = 0
KAM2 230114Z 15011KT 05/03 A298 RMK A01 T00520029  RH  085%=      5-min Rain = 0
KAM2 230115Z 16014KT 05/03 A298 RMK A01 T00520029  RH  085%=      5-min Rain = 0
KAM2 230116Z 16011KT 05/03 A298 RMK A01 T00510028  RH  085%=      5-min Rain = 0
KAM2 230117Z 16012KT 05/03 A298 RMK A01 T00510028  RH  085%=      5-min Rain = 0
KAM2 230118Z 15012KT 05/03 A298 RMK A01 T00500028  RH  086%=      5-min Rain = 0
KAM2 230119Z 15012KT 05/03 A2979 RMK A01 T00500028  RH  086%=      5-min Rain = 0
KAM2 230120Z 16015KT 05/03 A2979 RMK A01 T00500028  RH  086%=      5-min Rain = 0
KAM2 230121Z 16013KT 05/03 A298 RMK A01 T00490028  RH  086%=      5-min Rain = 0
KAM2 230122Z 16012KT 05/03 A298 RMK A01 T00490028  RH  086%=      5-min Rain = 0
KAM2 230123Z 16014KT 05/03 A298 RMK A01 T00480027  RH  086%=      5-min Rain = 0
KAM2 230124Z 16018G23KT 05/03 A298 RMK A01 T00480028  RH  087%=      5-min Rain = 0
KAM2 230125Z 15018KT 05/03 A298 RMK A01 T00480028  RH  087%=      5-min Rain = 0
KAM2 230126Z 15017KT 05/03 A298 RMK A01 T00470028  RH  087%=      5-min Rain = 0
KAM2 230127Z 15017KT 05/03 A298 RMK A01 T00470028  RH  087%=      5-min Rain = 0
KAM2 230128Z 15016KT 05/03 A298 RMK A01 T00470028  RH  087%=      5-min Rain = 0
KAM2 230129Z 15014KT 05/03 A298 RMK A01 T00470028  RH  087%=      5-min Rain = 0
KAM2 230130Z 15017G23KT 05/03 A298 RMK A01 T00470028  RH  087%=      5-min Rain = 0
KAM2 230131Z 15016KT 05/03 A2979 RMK A01 T00470028  RH  087%=      5-min Rain = 0
KAM2 230132Z 15015KT 05/03 A2979 RMK A01 T00470027  RH  087%=      5-min Rain = 0
KAM2 230133Z 15018KT 05/03 A2979 RMK A01 T00470027  RH  087%=      5-min Rain = 0
KAM2 230134Z 15016KT 05/03 A2979 RMK A01 T00460026  RH  087%=      5-min Rain = 0
KAM2 230135Z 15016KT 05/03 A2979 RMK A01 T00460025  RH  087%=      5-min Rain = 0
KAM2 230136Z 15016G21KT 05/03 A2979 RMK A01 T00460026  RH  087%=      5-min Rain = 0
KAM2 230137Z 15015KT 05/03 A2979 RMK A01 T00450026  RH  087%=      5-min Rain = 0
KAM2 230138Z 16015KT 05/03 A2979 RMK A01 T00450026  RH  087%=      5-min Rain = 0
KAM2 230139Z 16018KT 05/03 A2979 RMK A01 T00450025  RH  087%=      5-min Rain = 0
KAM2 230140Z 15014G19KT 05/03 A2979 RMK A01 T00460026  RH  087%=      5-min Rain = 0
KAM2 230141Z 15016KT 05/03 A2979 RMK A01 T00450025  RH  087%=      5-min Rain = 0
KAM2 230142Z 15015KT 05/03 A2979 RMK A01 T00450025  RH  087%=      5-min Rain = 0
KAM2 230143Z 15015KT 04/02 A2979 RMK A01 T00440024  RH  087%=      5-min Rain = 0
KAM2 230144Z 15016KT 04/02 A2979 RMK A01 T00440024  RH  087%=      5-min Rain = 0
KAM2 230145Z 15017KT 04/02 A2979 RMK A01 T00430024  RH  087%=      5-min Rain = 0
KAM2 230146Z 14015KT 04/02 A2979 RMK A01 T00430023  RH  087%=      5-min Rain = 0
KAM2 230147Z 15016KT 04/02 A2979 RMK A01 T00430023  RH  087%=      5-min Rain = 0
KAM2 230148Z 15014KT 04/02 A2979 RMK A01 T00430023  RH  087%=      5-min Rain = 0
KAM2 230149Z 14017KT 04/02 A2979 RMK A01 T00430024  RH  088%=      5-min Rain = 0
KAM2 230150Z 14019KT 04/03 A2979 RMK A01 T00430025  RH  088%=      5-min Rain = 0
KAM2 230151Z 14019KT 04/03 A2979 RMK A01 T00430025  RH  088%=      5-min Rain = 0
KAM2 230152Z 13016KT 04/03 A2979 RMK A01 T00440026  RH  088%=      5-min Rain = 0
KAM2 230153Z 13018KT 05/03 A2979 RMK A01 T00450026  RH  088%=      5-min Rain = 0
KAM2 230154Z 14017G22KT 05/03 A2979 RMK A01 T00450026  RH  088%=      5-min Rain = 0
KAM2 230155Z 14015G20KT 05/03 A2979 RMK A01 T00450026  RH  088%=      5-min Rain = 0
KAM2 230156Z 14017KT 05/03 A2979 RMK A01 T00450026  RH  087%=      5-min Rain = 0
KAM2 230157Z 14017G23KT 05/03 A2979 RMK A01 T00450026  RH  087%=      5-min Rain = 0
KAM2 230158Z 14019G24KT 05/03 A2979 RMK A01 T00450026  RH  087%=      5-min Rain = 0
KAM2 230159Z 14019KT 05/03 A2979 RMK A01 T00450026  RH  087%=      5-min Rain = 0
KAM2 230200Z 14019KT 05/03 A2979 RMK A01 T00460027  RH  087%=      5-min Rain = 0
KAM2 230201Z 14016KT 05/03 A2979 RMK A01 T00460027  RH  087%=      5-min Rain = 0
KAM2 230202Z 15016KT 05/03 A2979 RMK A01 T00460026  RH  087%=      5-min Rain = 0
KAM2 230203Z 15016KT 05/03 A2979 RMK A01 T00460026  RH  087%=      5-min Rain = 0
KAM2 230204Z 14013KT 05/03 A2979 RMK A01 T00460027  RH  087%=      5-min Rain = 0
KAM2 230205Z 14013KT 05/03 A2979 RMK A01 T00460027  RH  087%=      5-min Rain = 0
KAM2 230206Z 14013KT 05/03 A2979 RMK A01 T00460027  RH  087%=      5-min Rain = 0
KAM2 230207Z 14018KT 05/03 A2978 RMK A01 T00470027  RH  087%=      5-min Rain = 0
KAM2 230208Z 14015KT 05/03 A2978 RMK A01 T00470027  RH  087%=      5-min Rain = 0
KAM2 230209Z 15013KT 05/03 A2978 RMK A01 T00460027  RH  087%=      5-min Rain = 0
KAM2 230210Z 15012G19KT 05/03 A2978 RMK A01 T00460027  RH  087%=      5-min Rain = 0
KAM2 230211Z 14017KT 05/03 A2978 RMK A01 T00460027  RH  087%=      5-min Rain = 0
KAM2 230212Z 14013G18KT 05/03 A2978 RMK A01 T00460027  RH  088%=      5-min Rain = 0
KAM2 230213Z 14010KT 05/03 A2978 RMK A01 T00460027  RH  088%=      5-min Rain = 0
KAM2 230214Z 14012KT 05/03 A2978 RMK A01 T00460027  RH  087%=      5-min Rain = 0
KAM2 230215Z 14014KT 05/03 A2978 RMK A01 T00460027  RH  087%=      5-min Rain = 0
KAM2 230216Z 14015KT 05/03 A2978 RMK A01 T00470028  RH  088%=      5-min Rain = 0
KAM2 230217Z 14013KT 05/03 A2978 RMK A01 T00460028  RH  088%=      5-min Rain = 0
KAM2 230218Z 14015KT 05/03 A2978 RMK A01 T00460028  RH  088%=      5-min Rain = 0
KAM2 230219Z 14013KT 05/03 A2978 RMK A01 T00460028  RH  088%=      5-min Rain = 0
KAM2 230220Z 13013KT 05/03 A2977 RMK A01 T00460028  RH  088%=      5-min Rain = 0
KAM2 230221Z 13016KT 05/03 A2977 RMK A01 T00460028  RH  088%=      5-min Rain = 0
KAM2 230222Z 14015KT 05/03 A2977 RMK A01 T00460028  RH  088%=      5-min Rain = 0
KAM2 230223Z 14015KT 05/03 A2977 RMK A01 T00460028  RH  088%=      5-min Rain = 0
KAM2 230224Z 14013KT 05/03 A2977 RMK A01 T00460028  RH  088%=      5-min Rain = 0
KAM2 230225Z 13011KT 05/03 A2977 RMK A01 T00460028  RH  088%=      5-min Rain = 0
KAM2 230226Z 14014KT 05/03 A2977 RMK A01 T00460028  RH  088%=      5-min Rain = 0
KAM2 230227Z 13016G21KT 05/03 A2978 RMK A01 T00460028  RH  088%=      5-min Rain = 0
KAM2 230228Z 14014KT 05/03 A2978 RMK A01 T00460028  RH  088%=      5-min Rain = 0
KAM2 230229Z 14014G19KT 05/03 A2978 RMK A01 T00450028  RH  089%=      5-min Rain = 0
KAM2 230230Z 14013KT 05/03 A2978 RMK A01 T00450028  RH  089%=      5-min Rain = 0
KAM2 230231Z 14013KT 05/03 A2977 RMK A01 T00450028  RH  089%=      5-min Rain = 0
KAM2 230232Z 13014KT 05/03 A2978 RMK A01 T00450029  RH  089%=      5-min Rain = 0
KAM2 230233Z 13013KT 05/03 A2977 RMK A01 T00450029  RH  089%=      5-min Rain = 0
KAM2 230234Z 14015KT 05/03 A2977 RMK A01 T00450029  RH  090%=      5-min Rain = 0
KAM2 230235Z 13016G22KT 05/03 A2977 RMK A01 T00450029  RH  090%=      5-min Rain = 0
KAM2 230236Z 14017KT 05/03 A2977 RMK A01 T00450030  RH  090%=      5-min Rain = 0
KAM2 230237Z 14014KT 04/03 A2977 RMK A01 T00440029  RH  090%=      5-min Rain = 0
KAM2 230238Z 13017KT 04/03 A2977 RMK A01 T00440030  RH  090%=      5-min Rain = 0
KAM2 230239Z 13017KT 04/03 A2977 RMK A01 T00440030  RH  090%=      5-min Rain = 0
KAM2 230240Z 14018G23KT 04/03 A2977 RMK A01 T00440030  RH  090%=      5-min Rain = 0
KAM2 230241Z 13017KT 04/03 A2977 RMK A01 T00440030  RH  090%=      5-min Rain = 0
KAM2 230242Z 14016KT 05/03 A2977 RMK A01 T00450030  RH  091%=      5-min Rain = 0
KAM2 230243Z 13013G18KT 04/03 A2977 RMK A01 T00440031  RH  091%=      5-min Rain = 0
KAM2 230244Z 13014KT 04/03 A2977 RMK A01 T00440030  RH  091%=      5-min Rain = 0
KAM2 230245Z 13017KT 04/03 A2977 RMK A01 T00440031  RH  091%=      5-min Rain = 0
KAM2 230246Z 14016KT 04/03 A2977 RMK A01 T00440031  RH  091%=      5-min Rain = 0
KAM2 230247Z 13012KT 04/03 A2977 RMK A01 T00440031  RH  091%=      5-min Rain = 0
KAM2 230248Z 14013G18KT 04/03 A2977 RMK A01 T00440031  RH  091%=      5-min Rain = 0
KAM2 230249Z 14016G21KT 04/03 A2977 RMK A01 T00440030  RH  091%=      5-min Rain = 0
KAM2 230250Z 14016KT 04/03 A2977 RMK A01 T00420029  RH  091%=      5-min Rain = 0
KAM2 230251Z 14015KT 04/03 A2977 RMK A01 T00420029  RH  092%=      5-min Rain = 0
KAM2 230252Z 14013G18KT 04/03 A2977 RMK A01 T00420030  RH  092%=      5-min Rain = 0
KAM2 230253Z 14013G18KT 04/03 A2977 RMK A01 T00420030  RH  092%=      5-min Rain = 0
KAM2 230254Z 14013KT 04/03 A2977 RMK A01 T00420030  RH  092%=      5-min Rain = 0
KAM2 230255Z 13015KT 04/03 A2977 RMK A01 T00420030  RH  092%=      5-min Rain = 0
KAM2 230256Z 14017KT 04/03 A2977 RMK A01 T00420031  RH  092%=      5-min Rain = 0
KAM2 230257Z 14015KT 04/03 A2977 RMK A01 T00420031  RH  093%=      5-min Rain = 0
KAM2 230258Z 14012KT 04/03 A2976 RMK A01 T00420031  RH  093%=      5-min Rain = 0
KAM2 230259Z 13013KT 04/03 A2976 RMK A01 T00420031  RH  093%=      5-min Rain = 0
KAM2 230300Z 13015G20KT 04/03 A2977 RMK A01 T00420031  RH  093%=      5-min Rain = 0
KAM2 230301Z 13016KT 04/03 A2977 RMK A01 T00420030  RH  092%=      5-min Rain = 0
KAM2 230302Z 14017KT 04/03 A2977 RMK A01 T00410030  RH  092%=      5-min Rain = 0
KAM2 230303Z 14019KT 04/03 A2977 RMK A01 T00410029  RH  092%=      5-min Rain = 0
KAM2 230304Z 14015KT 04/03 A2976 RMK A01 T00400029  RH  092%=      5-min Rain = 0
KAM2 230305Z 14013G19KT 04/03 A2976 RMK A01 T00400029  RH  092%=      5-min Rain = 0
KAM2 230306Z 14016G21KT 04/03 A2976 RMK A01 T00400029  RH  092%=      5-min Rain = 0
KAM2 230307Z 13018KT 04/03 A2976 RMK A01 T00400029  RH  092%=      5-min Rain = 0
KAM2 230308Z 14013G18KT 04/03 A2976 RMK A01 T00400029  RH  092%=      5-min Rain = 0
KAM2 230309Z 14016KT 04/03 A2976 RMK A01 T00400029  RH  092%=      5-min Rain = 0
KAM2 230310Z 13017KT 04/03 A2976 RMK A01 T00400029  RH  092%=      5-min Rain = 0
KAM2 230311Z 13014KT 04/03 A2976 RMK A01 T00400029  RH  092%=      5-min Rain = 0
KAM2 230312Z 14014KT 04/03 A2976 RMK A01 T00400028  RH  092%=      5-min Rain = 0
KAM2 230313Z 14012G17KT 04/03 A2976 RMK A01 T00400029  RH  092%=      5-min Rain = 0
KAM2 230314Z 13012KT 04/03 A2976 RMK A01 T00400028  RH  092%=      5-min Rain = 0
KAM2 230315Z 14017G23KT 04/03 A2976 RMK A01 T00400028  RH  092%=      5-min Rain = 0
KAM2 230316Z 14017KT 04/03 A2976 RMK A01 T00400028  RH  092%=      5-min Rain = 0
KAM2 230317Z 14012KT 04/03 A2976 RMK A01 T00400028  RH  092%=      5-min Rain = 0
KAM2 230318Z 14015KT 04/03 A2976 RMK A01 T00390028  RH  092%=      5-min Rain = 0
KAM2 230319Z 14015G20KT 04/03 A2975 RMK A01 T00390028  RH  092%=      5-min Rain = 0
KAM2 230320Z 14017KT 04/03 A2975 RMK A01 T00390028  RH  092%=      5-min Rain = 0
KAM2 230321Z 14016KT 04/03 A2976 RMK A01 T00390027  RH  092%=      5-min Rain = 0
KAM2 230322Z 14014G20KT 04/03 A2976 RMK A01 T00390028  RH  093%=      5-min Rain = 0
KAM2 230323Z 13018G23KT 04/03 A2975 RMK A01 T00390028  RH  093%=      5-min Rain = 0
KAM2 230324Z 14019G25KT 04/03 A2975 RMK A01 T00390028  RH  093%=      5-min Rain = 0
KAM2 230325Z 14017KT 04/03 A2975 RMK A01 T00390028  RH  093%=      5-min Rain = 0
KAM2 230326Z 15015KT 04/03 A2975 RMK A01 T00390028  RH  093%=      5-min Rain = 0
KAM2 230327Z 14016KT 04/03 A2975 RMK A01 T00390028  RH  093%=      5-min Rain = 0
KAM2 230328Z 15015KT 04/03 A2975 RMK A01 T00380028  RH  093%=      5-min Rain = 0
KAM2 230329Z 15014KT 04/03 A2975 RMK A01 T00380028  RH  093%=      5-min Rain = 0
KAM2 230330Z 15011KT 04/03 A2975 RMK A01 T00380028  RH  093%=      5-min Rain = 0
KAM2 230331Z 15013KT 04/03 A2975 RMK A01 T00380028  RH  093%=      5-min Rain = 0
KAM2 230332Z 14015G20KT 04/03 A2975 RMK A01 T00380028  RH  093%=      5-min Rain = 0
KAM2 230333Z 15011KT 04/03 A2975 RMK A01 T00390028  RH  093%=      5-min Rain = 0
KAM2 230334Z 14013G18KT 04/03 A2975 RMK A01 T00390028  RH  093%=      5-min Rain = 0
KAM2 230335Z 14014KT 04/03 A2975 RMK A01 T00390028  RH  092%=      5-min Rain = 0
KAM2 230336Z 14014KT 04/03 A2975 RMK A01 T00390028  RH  092%=      5-min Rain = 0
KAM2 230337Z 14013KT 04/03 A2975 RMK A01 T00390028  RH  092%=      5-min Rain = 0
KAM2 230338Z 14016G21KT 04/03 A2975 RMK A01 T00390028  RH  092%=      5-min Rain = 0
KAM2 230339Z 14019G24KT 04/03 A2975 RMK A01 T00390028  RH  092%=      5-min Rain = 0
KAM2 230340Z 14015G23KT 04/03 A2975 RMK A01 T00390027  RH  092%=      5-min Rain = 0
KAM2 230341Z 14017G23KT 04/03 A2975 RMK A01 T00390028  RH  092%=      5-min Rain = 0
KAM2 230342Z 15018KT 04/03 A2975 RMK A01 T00390027  RH  092%=      5-min Rain = 0
KAM2 230343Z 15021KT 04/03 A2975 RMK A01 T00380027  RH  092%=      5-min Rain = 0
KAM2 230344Z 14017G24KT 04/03 A2975 RMK A01 T00380027  RH  092%=      5-min Rain = 0
KAM2 230345Z 14020G26KT 04/03 A2975 RMK A01 T00380027  RH  092%=      5-min Rain = 0
KAM2 230346Z 14020G25KT 04/03 A2975 RMK A01 T00380027  RH  093%=      5-min Rain = 0
KAM2 230347Z 14017KT 04/03 A2975 RMK A01 T00380027  RH  093%=      5-min Rain = 0
KAM2 230348Z 14018G24KT 04/03 A2975 RMK A01 T00380027  RH  093%=      5-min Rain = 0
KAM2 230349Z 14018G23KT 04/03 A2975 RMK A01 T00380027  RH  093%=      5-min Rain = 0
KAM2 230350Z 14016KT 04/03 A2975 RMK A01 T00380027  RH  093%=      5-min Rain = 0
KAM2 230351Z 14014KT 04/03 A2975 RMK A01 T00380027  RH  093%=      5-min Rain = 0
KAM2 230352Z 14014KT 04/03 A2975 RMK A01 T00380028  RH  093%=      5-min Rain = 0
KAM2 230353Z 14015G20KT 04/03 A2975 RMK A01 T00370027  RH  093%=      5-min Rain = 0
KAM2 230354Z 14012G18KT 04/03 A2975 RMK A01 T00370027  RH  093%=      5-min Rain = 0
KAM2 230355Z 14017KT 04/03 A2975 RMK A01 T00380027  RH  093%=      5-min Rain = 0
KAM2 230356Z 16015KT 04/03 A2975 RMK A01 T00380027  RH  092%=      5-min Rain = 0
KAM2 230357Z 15018KT 04/03 A2975 RMK A01 T00380026  RH  092%=      5-min Rain = 0
KAM2 230358Z 15018KT 04/03 A2975 RMK A01 T00380025  RH  092%=      5-min Rain = 0
KAM2 230359Z 15014G20KT 04/03 A2975 RMK A01 T00370025  RH  092%=      5-min Rain = 0
KAM2 230400Z 16015G21KT 04/03 A2975 RMK A01 T00380025  RH  092%=      5-min Rain = 0
KAM2 230401Z 15016KT 04/03 A2975 RMK A01 T00380025  RH  092%=      5-min Rain = 0
KAM2 230402Z 15020KT 04/03 A2975 RMK A01 T00370025  RH  091%=      5-min Rain = 0
KAM2 230403Z 15019KT 04/03 A2975 RMK A01 T00370025  RH  091%=      5-min Rain = 0
KAM2 230404Z 14017KT 04/03 A2975 RMK A01 T00380025  RH  092%=      5-min Rain = 0
KAM2 230405Z 14018G24KT 04/03 A2975 RMK A01 T00380025  RH  092%=      5-min Rain = 0
KAM2 230406Z 15019KT 04/03 A2974 RMK A01 T00380026  RH  092%=      5-min Rain = 0
KAM2 230407Z 15018G28KT 04/03 A2975 RMK A01 T00380026  RH  092%=      5-min Rain = 0
KAM2 230408Z 15023G28KT 04/03 A2974 RMK A01 T00380026  RH  092%=      5-min Rain = 0
KAM2 230409Z 15020G26KT 04/03 A2974 RMK A01 T00380026  RH  092%=      5-min Rain = 0
KAM2 230410Z 15017G22KT 04/03 A2974 RMK A01 T00380026  RH  092%=      5-min Rain = 0
KAM2 230411Z 15019KT 04/03 A2974 RMK A01 T00380027  RH  092%=      5-min Rain = 0
KAM2 230412Z 15020G25KT 04/03 A2974 RMK A01 T00380026  RH  092%=      5-min Rain = 0
KAM2 230413Z 14017KT 04/03 A2974 RMK A01 T00380026  RH  092%=      5-min Rain = 0
KAM2 230414Z 14020KT 04/03 A2974 RMK A01 T00380026  RH  092%=      5-min Rain = 0
KAM2 230415Z 14019G24KT 04/03 A2974 RMK A01 T00380026  RH  092%=      5-min Rain = 0
KAM2 230416Z 14017G23KT 04/03 A2974 RMK A01 T00390027  RH  092%=      5-min Rain = 0
KAM2 230417Z 14019KT 04/03 A2974 RMK A01 T00380026  RH  092%=      5-min Rain = 0
KAM2 230418Z 14018G23KT 04/03 A2974 RMK A01 T00390026  RH  092%=      5-min Rain = 0
KAM2 230419Z 15016G21KT 04/03 A2974 RMK A01 T00390026  RH  092%=      5-min Rain = 0
KAM2 230420Z 14017G23KT 04/03 A2974 RMK A01 T00380026  RH  092%=      5-min Rain = 0
KAM2 230421Z 15012G17KT 04/03 A2975 RMK A01 T00380027  RH  092%=      5-min Rain = 0
KAM2 230422Z 14016G23KT 04/03 A2975 RMK A01 T00380026  RH  092%=      5-min Rain = 0
KAM2 230423Z 14017KT 04/03 A2975 RMK A01 T00390026  RH  092%=      5-min Rain = 0
KAM2 230424Z 14018KT 04/03 A2975 RMK A01 T00380026  RH  092%=      5-min Rain = 0
KAM2 230425Z 14017G24KT 04/03 A2975 RMK A01 T00380026  RH  092%=      5-min Rain = 0
KAM2 230426Z 14018G24KT 04/03 A2975 RMK A01 T00380026  RH  092%=      5-min Rain = 0
KAM2 230427Z 15017KT 04/03 A2975 RMK A01 T00390027  RH  092%=      5-min Rain = 0
KAM2 230428Z 15018KT 04/03 A2974 RMK A01 T00380027  RH  092%=      5-min Rain = 0
KAM2 230429Z 15016KT 04/03 A2975 RMK A01 T00390027  RH  092%=      5-min Rain = 0
KAM2 230430Z 15013KT 04/03 A2975 RMK A01 T00390027  RH  092%=      5-min Rain = 0
KAM2 230431Z 14016G22KT 04/03 A2975 RMK A01 T00390027  RH  092%=      5-min Rain = 0
KAM2 230432Z 14019KT 04/03 A2974 RMK A01 T00390027  RH  092%=      5-min Rain = 0
KAM2 230433Z 15015KT 04/03 A2975 RMK A01 T00390027  RH  092%=      5-min Rain = 0
KAM2 230434Z 15017KT 04/03 A2975 RMK A01 T00390026  RH  091%=      5-min Rain = 0
KAM2 230435Z 15017G23KT 04/03 A2975 RMK A01 T00390026  RH  091%=      5-min Rain = 0
KAM2 230436Z 15020KT 04/03 A2974 RMK A01 T00390025  RH  091%=      5-min Rain = 0
KAM2 230437Z 14018G23KT 04/03 A2975 RMK A01 T00390026  RH  091%=      5-min Rain = 0
KAM2 230438Z 14019KT 04/03 A2975 RMK A01 T00390027  RH  092%=      5-min Rain = 0
KAM2 230439Z 14016KT 04/03 A2975 RMK A01 T00390027  RH  092%=      5-min Rain = 0
KAM2 230440Z 14013G20KT 04/03 A2975 RMK A01 T00390027  RH  092%=      5-min Rain = 0
KAM2 230441Z 15013G18KT 04/03 A2975 RMK A01 T00390027  RH  092%=      5-min Rain = 0
KAM2 230442Z 15015KT 04/03 A2975 RMK A01 T00400027  RH  092%=      5-min Rain = 0
KAM2 230443Z 15016KT 04/03 A2975 RMK A01 T00400028  RH  092%=      5-min Rain = 0
KAM2 230444Z 15016KT 04/03 A2975 RMK A01 T00400028  RH  092%=      5-min Rain = 0
KAM2 230445Z 15015KT 04/03 A2975 RMK A01 T00400029  RH  092%=      5-min Rain = 0
KAM2 230446Z 14021KT 04/03 A2975 RMK A01 T00400028  RH  092%=      5-min Rain = 0
KAM2 230447Z 15018G24KT 04/03 A2976 RMK A01 T00400028  RH  092%=      5-min Rain = 0
KAM2 230448Z 14018KT 04/03 A2976 RMK A01 T00400028  RH  092%=      5-min Rain = 0
KAM2 230449Z 14016KT 04/03 A2976 RMK A01 T00400028  RH  092%=      5-min Rain = 0
KAM2 230450Z 15014G19KT 04/03 A2976 RMK A01 T00400028  RH  092%=      5-min Rain = 0
KAM2 230451Z 15014KT 04/03 A2976 RMK A01 T00400028  RH  092%=      5-min Rain = 0
KAM2 230452Z 15019KT 04/03 A2976 RMK A01 T00400028  RH  092%=      5-min Rain = 0
KAM2 230453Z 15015KT 04/03 A2976 RMK A01 T00400029  RH  092%=      5-min Rain = 0
KAM2 230454Z 15015KT 04/03 A2976 RMK A01 T00400029  RH  093%=      5-min Rain = 0
KAM2 230455Z 15013KT 04/03 A2976 RMK A01 T00400029  RH  093%=      5-min Rain = 0
KAM2 230456Z 15012KT 04/03 A2976 RMK A01 T00400029  RH  093%=      5-min Rain = 0
KAM2 230457Z 15014G19KT 04/03 A2976 RMK A01 T00390029  RH  093%=      5-min Rain = 0
KAM2 230458Z 16017G23KT 04/03 A2976 RMK A01 T00400029  RH  093%=      5-min Rain = 0
KAM2 230459Z 15021KT 04/03 A2976 RMK A01 T00400029  RH  092%=      5-min Rain = 0
KAM2 230500Z 15020G27KT 04/03 A2976 RMK A01 T00400028  RH  092%=      5-min Rain = 0
KAM2 230501Z 15017G23KT 04/03 A2977 RMK A01 T00400029  RH  093%=      5-min Rain = 0
KAM2 230502Z 16017G23KT 04/03 A2977 RMK A01 T00400029  RH  093%=      5-min Rain = 0
KAM2 230503Z 15017KT 04/03 A2977 RMK A01 T00400029  RH  093%=      5-min Rain = 0
KAM2 230504Z 15018G23KT 04/03 A2977 RMK A01 T00400029  RH  093%=      5-min Rain = 0
KAM2 230505Z 15016KT 04/03 A2976 RMK A01 T00400029  RH  093%=      5-min Rain = 0
KAM2 230506Z 14016KT 04/03 A2976 RMK A01 T00400030  RH  093%=      5-min Rain = 0
KAM2 230507Z 14015KT 04/03 A2976 RMK A01 T00400029  RH  093%=      5-min Rain = 0
KAM2 230508Z 14014KT 04/03 A2975 RMK A01 T00410030  RH  092%=      5-min Rain = 0
KAM2 230509Z 15013KT 04/03 A2976 RMK A01 T00410029  RH  092%=      5-min Rain = 0
KAM2 230510Z 15011KT 04/03 A2976 RMK A01 T00410029  RH  092%=      5-min Rain = 0
KAM2 230511Z 15011KT 04/03 A2976 RMK A01 T00410029  RH  092%=      5-min Rain = 0
KAM2 230512Z 15011KT 04/03 A2976 RMK A01 T00410029  RH  092%=      5-min Rain = 0
KAM2 230513Z 16017KT 04/03 A2976 RMK A01 T00410029  RH  092%=      5-min Rain = 0
KAM2 230514Z 16017KT 04/03 A2976 RMK A01 T00410029  RH  092%=      5-min Rain = 0
KAM2 230515Z 16015KT 04/03 A2976 RMK A01 T00410029  RH  092%=      5-min Rain = 0
KAM2 230516Z 16014KT 04/03 A2976 RMK A01 T00410029  RH  092%=      5-min Rain = 0
KAM2 230517Z 15013G18KT 04/03 A2976 RMK A01 T00410029  RH  092%=      5-min Rain = 0
KAM2 230518Z 15011KT 04/03 A2976 RMK A01 T00410029  RH  092%=      5-min Rain = 0
KAM2 230519Z 16012KT 04/03 A2975 RMK A01 T00410030  RH  092%=      5-min Rain = 0
KAM2 230520Z 16015G20KT 04/03 A2975 RMK A01 T00410029  RH  092%=      5-min Rain = 0
KAM2 230521Z 16013G18KT 04/03 A2975 RMK A01 T00410030  RH  092%=      5-min Rain = 0
KAM2 230522Z 15012KT 04/03 A2975 RMK A01 T00410030  RH  092%=      5-min Rain = 0
KAM2 230523Z 16010KT 04/03 A2975 RMK A01 T00410030  RH  092%=      5-min Rain = 0
KAM2 230524Z 16011KT 04/03 A2975 RMK A01 T00410030  RH  093%=      5-min Rain = 0
KAM2 230525Z 15010G15KT 04/03 A2975 RMK A01 T00410030  RH  093%=      5-min Rain = 0
KAM2 230526Z 15012KT 04/03 A2975 RMK A01 T00410030  RH  093%=      5-min Rain = 0
KAM2 230527Z 15014KT 04/03 A2974 RMK A01 T00410031  RH  093%=      5-min Rain = 0
KAM2 230528Z 15012KT 04/03 A2974 RMK A01 T00410031  RH  093%=      5-min Rain = 0
KAM2 230529Z 15014KT 04/03 A2974 RMK A01 T00410032  RH  093%=      5-min Rain = 0
KAM2 230530Z 15015KT 04/03 A2973 RMK A01 T00410032  RH  094%=      5-min Rain = 0
KAM2 230531Z 16016KT 04/03 A2973 RMK A01 T00410032  RH  094%=      5-min Rain = 0
KAM2 230532Z 15014KT 04/03 A2973 RMK A01 T00410032  RH  094%=      5-min Rain = 0
KAM2 230533Z 15015KT 04/03 A2973 RMK A01 T00410033  RH  094%=      5-min Rain = 0
KAM2 230534Z 15017KT 04/03 A2973 RMK A01 T00410033  RH  095%=      5-min Rain = 0
KAM2 230535Z 15014KT 04/03 A2973 RMK A01 T00410033  RH  095%=      5-min Rain = 0
KAM2 230536Z 15014KT 04/03 A2973 RMK A01 T00410033  RH  095%=      5-min Rain = 0
KAM2 230537Z 14014KT 04/03 A2972 RMK A01 T00410033  RH  095%=      5-min Rain = 0
KAM2 230538Z 14014KT 04/03 A2972 RMK A01 T00410033  RH  095%=      5-min Rain = 0
KAM2 230539Z 14014KT 04/03 A2972 RMK A01 T00410033  RH  095%=      5-min Rain = 0
KAM2 230540Z 14014KT 04/03 A2972 RMK A01 T00410033  RH  095%=      5-min Rain = 0
KAM2 230541Z 14014KT 04/03 A2972 RMK A01 T00410034  RH  095%=      5-min Rain = 0
KAM2 230542Z 14014KT 04/03 A2972 RMK A01 T00410034  RH  095%=      5-min Rain = 0
KAM2 230543Z 14015G20KT 04/03 A2971 RMK A01 T00410034  RH  095%=      5-min Rain = 0
KAM2 230544Z 14017KT 04/03 A2971 RMK A01 T00410034  RH  095%=      5-min Rain = 0
KAM2 230545Z 13015KT 04/03 A2971 RMK A01 T00410034  RH  096%=      5-min Rain = 0
KAM2 230546Z 13014KT 04/04 A297 RMK A01 T00410035  RH  096%=      5-min Rain = 0
KAM2 230547Z 13014KT 04/04 A297 RMK A01 T00410035  RH  096%=      5-min Rain = 0
KAM2 230548Z 12015KT 04/04 A297 RMK A01 T00410035  RH  096%=      5-min Rain = 0
KAM2 230549Z 13015KT 04/04 A2969 RMK A01 T00400035  RH  096%=      5-min Rain = 0
KAM2 230550Z 13015KT 04/04 A297 RMK A01 T00400035  RH  096%=      5-min Rain = 0
KAM2 230551Z 14018KT 04/04 A297 RMK A01 T00400035  RH  096%=      5-min Rain = 0
KAM2 230552Z 14018G24KT 04/04 A297 RMK A01 T00400035  RH  097%=      5-min Rain = 0
KAM2 230553Z 14014KT 04/04 A297 RMK A01 T00400036  RH  097%=      5-min Rain = 0
KAM2 230554Z 14017KT 04/04 A297 RMK A01 T00400036  RH  097%=      5-min Rain = 0
KAM2 230555Z 14018KT 04/04 A297 RMK A01 T00410036  RH  097%=      5-min Rain = 0
KAM2 230556Z 14016KT 04/04 A297 RMK A01 T00410036  RH  097%=      5-min Rain = 0
KAM2 230557Z 14017KT 04/04 A297 RMK A01 T00410036  RH  097%=      5-min Rain = 0
KAM2 230558Z 15016KT 04/04 A297 RMK A01 T00410036  RH  097%=      5-min Rain = 0
KAM2 230559Z 14014KT 04/04 A297 RMK A01 T00410036  RH  097%=      5-min Rain = 0

Page generated in 0.1434 seconds.